$GPRMC,000000.000,V,5205.169,N,01638.738,E,0.00,0.00,010070,,*1E $GPGGA,000000.000,5205.169,N,01638.738,E,0,00,0.0,0.000,M,0.0,M,,*61 $GPRMC,000000.000,V,5205.191,N,01638.765,E,0.00,0.00,010070,,*11 $GPGGA,000000.000,5205.191,N,01638.765,E,0,00,0.0,0.000,M,0.0,M,,*6E $GPRMC,000000.000,V,5205.201,N,01638.773,E,0.00,0.00,010070,,*1C $GPGGA,000000.000,5205.201,N,01638.773,E,0,00,0.0,0.000,M,0.0,M,,*63 $GPRMC,000000.000,V,5205.210,N,01638.774,E,0.00,0.00,010070,,*1B $GPGGA,000000.000,5205.210,N,01638.774,E,0,00,0.0,0.000,M,0.0,M,,*64 $GPRMC,000000.000,V,5205.220,N,01638.765,E,0.00,0.00,010070,,*18 $GPGGA,000000.000,5205.220,N,01638.765,E,0,00,0.0,0.000,M,0.0,M,,*67 $GPRMC,000000.000,V,5205.247,N,01638.807,E,0.00,0.00,010070,,*12 $GPGGA,000000.000,5205.247,N,01638.807,E,0,00,0.0,0.000,M,0.0,M,,*6D $GPRMC,000000.000,V,5205.225,N,01638.849,E,0.00,0.00,010070,,*1C $GPGGA,000000.000,5205.225,N,01638.849,E,0,00,0.0,0.000,M,0.0,M,,*63 $GPRMC,000000.000,V,5205.193,N,01638.880,E,0.00,0.00,010070,,*17 $GPGGA,000000.000,5205.193,N,01638.880,E,0,00,0.0,0.000,M,0.0,M,,*68 $GPRMC,000000.000,V,5205.173,N,01638.901,E,0.00,0.00,010070,,*11 $GPGGA,000000.000,5205.173,N,01638.901,E,0,00,0.0,0.000,M,0.0,M,,*6E $GPRMC,000000.000,V,5205.150,N,01638.916,E,0.00,0.00,010070,,*16 $GPGGA,000000.000,5205.150,N,01638.916,E,0,00,0.0,0.000,M,0.0,M,,*69 $GPRMC,000000.000,V,5205.124,N,01638.939,E,0.00,0.00,010070,,*18 $GPGGA,000000.000,5205.124,N,01638.939,E,0,00,0.0,0.000,M,0.0,M,,*67 $GPRMC,000000.000,V,5205.099,N,01638.964,E,0.00,0.00,010070,,*17 $GPGGA,000000.000,5205.099,N,01638.964,E,0,00,0.0,0.000,M,0.0,M,,*68 $GPRMC,000000.000,V,5205.070,N,01639.007,E,0.00,0.00,010070,,*1D $GPGGA,000000.000,5205.070,N,01639.007,E,0,00,0.0,0.000,M,0.0,M,,*62 $GPRMC,000000.000,V,5205.039,N,01639.064,E,0.00,0.00,010070,,*15 $GPGGA,000000.000,5205.039,N,01639.064,E,0,00,0.0,0.000,M,0.0,M,,*6A $GPRMC,000000.000,V,5205.020,N,01639.100,E,0.00,0.00,010070,,*1E $GPGGA,000000.000,5205.020,N,01639.100,E,0,00,0.0,0.000,M,0.0,M,,*61 $GPRMC,000000.000,V,5204.996,N,01639.127,E,0.00,0.00,010070,,*1E $GPGGA,000000.000,5204.996,N,01639.127,E,0,00,0.0,0.000,M,0.0,M,,*61 $GPRMC,000000.000,V,5204.967,N,01639.159,E,0.00,0.00,010070,,*19 $GPGGA,000000.000,5204.967,N,01639.159,E,0,00,0.0,0.000,M,0.0,M,,*66 $GPRMC,000000.000,V,5204.934,N,01639.192,E,0.00,0.00,010070,,*18 $GPGGA,000000.000,5204.934,N,01639.192,E,0,00,0.0,0.000,M,0.0,M,,*67 $GPRMC,000000.000,V,5204.905,N,01639.220,E,0.00,0.00,010070,,*10 $GPGGA,000000.000,5204.905,N,01639.220,E,0,00,0.0,0.000,M,0.0,M,,*6F $GPRMC,000000.000,V,5204.882,N,01639.249,E,0.00,0.00,010070,,*11 $GPGGA,000000.000,5204.882,N,01639.249,E,0,00,0.0,0.000,M,0.0,M,,*6E $GPRMC,000000.000,V,5204.873,N,01639.266,E,0.00,0.00,010070,,*12 $GPGGA,000000.000,5204.873,N,01639.266,E,0,00,0.0,0.000,M,0.0,M,,*6D $GPRMC,000000.000,V,5204.904,N,01639.331,E,0.00,0.00,010070,,*10 $GPGGA,000000.000,5204.904,N,01639.331,E,0,00,0.0,0.000,M,0.0,M,,*6F $GPRMC,000000.000,V,5204.927,N,01639.367,E,0.00,0.00,010070,,*12 $GPGGA,000000.000,5204.927,N,01639.367,E,0,00,0.0,0.000,M,0.0,M,,*6D $GPRMC,000000.000,V,5205.010,N,01639.490,E,0.00,0.00,010070,,*11 $GPGGA,000000.000,5205.010,N,01639.490,E,0,00,0.0,0.000,M,0.0,M,,*6E $GPRMC,000000.000,V,5205.075,N,01639.589,E,0.00,0.00,010070,,*1B $GPGGA,000000.000,5205.075,N,01639.589,E,0,00,0.0,0.000,M,0.0,M,,*64 $GPRMC,000000.000,V,5205.046,N,01639.673,E,0.00,0.00,010070,,*1D $GPGGA,000000.000,5205.046,N,01639.673,E,0,00,0.0,0.000,M,0.0,M,,*62 $GPRMC,000000.000,V,5205.029,N,01639.766,E,0.00,0.00,010070,,*11 $GPGGA,000000.000,5205.029,N,01639.766,E,0,00,0.0,0.000,M,0.0,M,,*6E $GPRMC,000000.000,V,5205.019,N,01639.835,E,0.00,0.00,010070,,*1B $GPGGA,000000.000,5205.019,N,01639.835,E,0,00,0.0,0.000,M,0.0,M,,*64 $GPRMC,000000.000,V,5204.986,N,01640.005,E,0.00,0.00,010070,,*10 $GPGGA,000000.000,5204.986,N,01640.005,E,0,00,0.0,0.000,M,0.0,M,,*6F $GPRMC,000000.000,V,5204.957,N,01640.182,E,0.00,0.00,010070,,*12 $GPGGA,000000.000,5204.957,N,01640.182,E,0,00,0.0,0.000,M,0.0,M,,*6D $GPRMC,000000.000,V,5204.898,N,01640.511,E,0.00,0.00,010070,,*1E $GPGGA,000000.000,5204.898,N,01640.511,E,0,00,0.0,0.000,M,0.0,M,,*61 $GPRMC,000000.000,V,5204.861,N,01640.724,E,0.00,0.00,010070,,*1C $GPGGA,000000.000,5204.861,N,01640.724,E,0,00,0.0,0.000,M,0.0,M,,*63 $GPRMC,000000.000,V,5204.819,N,01641.000,E,0.00,0.00,010070,,*13 $GPGGA,000000.000,5204.819,N,01641.000,E,0,00,0.0,0.000,M,0.0,M,,*6C $GPRMC,000000.000,V,5204.789,N,01641.174,E,0.00,0.00,010070,,*17 $GPGGA,000000.000,5204.789,N,01641.174,E,0,00,0.0,0.000,M,0.0,M,,*68 $GPRMC,000000.000,V,5204.721,N,01641.569,E,0.00,0.00,010070,,*1D $GPGGA,000000.000,5204.721,N,01641.569,E,0,00,0.0,0.000,M,0.0,M,,*62 $GPRMC,000000.000,V,5204.631,N,01642.079,E,0.00,0.00,010070,,*1A $GPGGA,000000.000,5204.631,N,01642.079,E,0,00,0.0,0.000,M,0.0,M,,*65 $GPRMC,000000.000,V,5204.584,N,01642.337,E,0.00,0.00,010070,,*1E $GPGGA,000000.000,5204.584,N,01642.337,E,0,00,0.0,0.000,M,0.0,M,,*61 $GPRMC,000000.000,V,5204.551,N,01642.516,E,0.00,0.00,010070,,*13 $GPGGA,000000.000,5204.551,N,01642.516,E,0,00,0.0,0.000,M,0.0,M,,*6C $GPRMC,000000.000,V,5204.544,N,01642.578,E,0.00,0.00,010070,,*1F $GPGGA,000000.000,5204.544,N,01642.578,E,0,00,0.0,0.000,M,0.0,M,,*60 $GPRMC,000000.000,V,5204.539,N,01642.635,E,0.00,0.00,010070,,*1F $GPGGA,000000.000,5204.539,N,01642.635,E,0,00,0.0,0.000,M,0.0,M,,*60 $GPRMC,000000.000,V,5204.541,N,01642.670,E,0.00,0.00,010070,,*11 $GPGGA,000000.000,5204.541,N,01642.670,E,0,00,0.0,0.000,M,0.0,M,,*6E $GPRMC,000000.000,V,5204.547,N,01642.698,E,0.00,0.00,010070,,*11 $GPGGA,000000.000,5204.547,N,01642.698,E,0,00,0.0,0.000,M,0.0,M,,*6E $GPRMC,000000.000,V,5204.559,N,01642.758,E,0.00,0.00,010070,,*13 $GPGGA,000000.000,5204.559,N,01642.758,E,0,00,0.0,0.000,M,0.0,M,,*6C $GPRMC,000000.000,V,5204.571,N,01642.795,E,0.00,0.00,010070,,*18 $GPGGA,000000.000,5204.571,N,01642.795,E,0,00,0.0,0.000,M,0.0,M,,*67 $GPRMC,000000.000,V,5204.608,N,01642.923,E,0.00,0.00,010070,,*16 $GPGGA,000000.000,5204.608,N,01642.923,E,0,00,0.0,0.000,M,0.0,M,,*69 $GPRMC,000000.000,V,5204.644,N,01643.042,E,0.00,0.00,010070,,*11 $GPGGA,000000.000,5204.644,N,01643.042,E,0,00,0.0,0.000,M,0.0,M,,*6E $GPRMC,000000.000,V,5204.679,N,01643.132,E,0.00,0.00,010070,,*19 $GPGGA,000000.000,5204.679,N,01643.132,E,0,00,0.0,0.000,M,0.0,M,,*66 $GPRMC,000000.000,V,5204.717,N,01643.226,E,0.00,0.00,010070,,*16 $GPGGA,000000.000,5204.717,N,01643.226,E,0,00,0.0,0.000,M,0.0,M,,*69 $GPRMC,000000.000,V,5204.738,N,01643.321,E,0.00,0.00,010070,,*1D $GPGGA,000000.000,5204.738,N,01643.321,E,0,00,0.0,0.000,M,0.0,M,,*62 $GPRMC,000000.000,V,5204.749,N,01643.383,E,0.00,0.00,010070,,*13 $GPGGA,000000.000,5204.749,N,01643.383,E,0,00,0.0,0.000,M,0.0,M,,*6C $GPRMC,000000.000,V,5204.743,N,01643.483,E,0.00,0.00,010070,,*1E $GPGGA,000000.000,5204.743,N,01643.483,E,0,00,0.0,0.000,M,0.0,M,,*61 $GPRMC,000000.000,V,5204.721,N,01643.588,E,0.00,0.00,010070,,*10 $GPGGA,000000.000,5204.721,N,01643.588,E,0,00,0.0,0.000,M,0.0,M,,*6F $GPRMC,000000.000,V,5204.614,N,01643.457,E,0.00,0.00,010070,,*14 $GPGGA,000000.000,5204.614,N,01643.457,E,0,00,0.0,0.000,M,0.0,M,,*6B $GPRMC,000000.000,V,5204.489,N,01643.301,E,0.00,0.00,010070,,*16 $GPGGA,000000.000,5204.489,N,01643.301,E,0,00,0.0,0.000,M,0.0,M,,*69 $GPRMC,000000.000,V,5204.401,N,01643.224,E,0.00,0.00,010070,,*10 $GPGGA,000000.000,5204.401,N,01643.224,E,0,00,0.0,0.000,M,0.0,M,,*6F $GPRMC,000000.000,V,5204.300,N,01643.147,E,0.00,0.00,010070,,*10 $GPGGA,000000.000,5204.300,N,01643.147,E,0,00,0.0,0.000,M,0.0,M,,*6F $GPRMC,000000.000,V,5203.978,N,01642.903,E,0.00,0.00,010070,,*1B $GPGGA,000000.000,5203.978,N,01642.903,E,0,00,0.0,0.000,M,0.0,M,,*64 $GPRMC,000000.000,V,5203.700,N,01642.704,E,0.00,0.00,010070,,*13 $GPGGA,000000.000,5203.700,N,01642.704,E,0,00,0.0,0.000,M,0.0,M,,*6C $GPRMC,000000.000,V,5203.688,N,01642.691,E,0.00,0.00,010070,,*1F $GPGGA,000000.000,5203.688,N,01642.691,E,0,00,0.0,0.000,M,0.0,M,,*60 $GPRMC,000000.000,V,5203.692,N,01642.753,E,0.00,0.00,010070,,*1B $GPGGA,000000.000,5203.692,N,01642.753,E,0,00,0.0,0.000,M,0.0,M,,*64 $GPRMC,000000.000,V,5203.775,N,01643.440,E,0.00,0.00,010070,,*13 $GPGGA,000000.000,5203.775,N,01643.440,E,0,00,0.0,0.000,M,0.0,M,,*6C $GPRMC,000000.000,V,5203.822,N,01643.765,E,0.00,0.00,010070,,*1A $GPGGA,000000.000,5203.822,N,01643.765,E,0,00,0.0,0.000,M,0.0,M,,*65 $GPRMC,000000.000,V,5203.831,N,01643.871,E,0.00,0.00,010070,,*12 $GPGGA,000000.000,5203.831,N,01643.871,E,0,00,0.0,0.000,M,0.0,M,,*6D $GPRMC,000000.000,V,5203.820,N,01644.053,E,0.00,0.00,010070,,*1D $GPGGA,000000.000,5203.820,N,01644.053,E,0,00,0.0,0.000,M,0.0,M,,*62 $GPRMC,000000.000,V,5203.786,N,01644.258,E,0.00,0.00,010070,,*17 $GPGGA,000000.000,5203.786,N,01644.258,E,0,00,0.0,0.000,M,0.0,M,,*68 $GPRMC,000000.000,V,5203.772,N,01644.263,E,0.00,0.00,010070,,*14 $GPGGA,000000.000,5203.772,N,01644.263,E,0,00,0.0,0.000,M,0.0,M,,*6B $GPRMC,000000.000,V,5203.758,N,01644.291,E,0.00,0.00,010070,,*11 $GPGGA,000000.000,5203.758,N,01644.291,E,0,00,0.0,0.000,M,0.0,M,,*6E $GPRMC,000000.000,V,5203.757,N,01644.312,E,0.00,0.00,010070,,*14 $GPGGA,000000.000,5203.757,N,01644.312,E,0,00,0.0,0.000,M,0.0,M,,*6B $GPRMC,000000.000,V,5203.757,N,01644.336,E,0.00,0.00,010070,,*12 $GPGGA,000000.000,5203.757,N,01644.336,E,0,00,0.0,0.000,M,0.0,M,,*6D $GPRMC,000000.000,V,5203.743,N,01644.375,E,0.00,0.00,010070,,*10 $GPGGA,000000.000,5203.743,N,01644.375,E,0,00,0.0,0.000,M,0.0,M,,*6F $GPRMC,000000.000,V,5203.654,N,01644.688,E,0.00,0.00,010070,,*10 $GPGGA,000000.000,5203.654,N,01644.688,E,0,00,0.0,0.000,M,0.0,M,,*6F $GPRMC,000000.000,V,5203.575,N,01644.939,E,0.00,0.00,010070,,*15 $GPGGA,000000.000,5203.575,N,01644.939,E,0,00,0.0,0.000,M,0.0,M,,*6A $GPRMC,000000.000,V,5203.473,N,01645.237,E,0.00,0.00,010070,,*16 $GPGGA,000000.000,5203.473,N,01645.237,E,0,00,0.0,0.000,M,0.0,M,,*69 $GPRMC,000000.000,V,5203.332,N,01645.657,E,0.00,0.00,010070,,*16 $GPGGA,000000.000,5203.332,N,01645.657,E,0,00,0.0,0.000,M,0.0,M,,*69 $GPRMC,000000.000,V,5203.153,N,01646.186,E,0.00,0.00,010070,,*1B $GPGGA,000000.000,5203.153,N,01646.186,E,0,00,0.0,0.000,M,0.0,M,,*64 $GPRMC,000000.000,V,5203.139,N,01646.235,E,0.00,0.00,010070,,*1C $GPGGA,000000.000,5203.139,N,01646.235,E,0,00,0.0,0.000,M,0.0,M,,*63 $GPRMC,000000.000,V,5203.129,N,01646.285,E,0.00,0.00,010070,,*16 $GPGGA,000000.000,5203.129,N,01646.285,E,0,00,0.0,0.000,M,0.0,M,,*69 $GPRMC,000000.000,V,5203.073,N,01646.677,E,0.00,0.00,010070,,*11 $GPGGA,000000.000,5203.073,N,01646.677,E,0,00,0.0,0.000,M,0.0,M,,*6E $GPRMC,000000.000,V,5203.054,N,01646.788,E,0.00,0.00,010070,,*15 $GPGGA,000000.000,5203.054,N,01646.788,E,0,00,0.0,0.000,M,0.0,M,,*6A $GPRMC,000000.000,V,5203.019,N,01646.883,E,0.00,0.00,010070,,*18 $GPGGA,000000.000,5203.019,N,01646.883,E,0,00,0.0,0.000,M,0.0,M,,*67 $GPRMC,000000.000,V,5203.005,N,01646.939,E,0.00,0.00,010070,,*15 $GPGGA,000000.000,5203.005,N,01646.939,E,0,00,0.0,0.000,M,0.0,M,,*6A $GPRMC,000000.000,V,5202.987,N,01647.048,E,0.00,0.00,010070,,*19 $GPGGA,000000.000,5202.987,N,01647.048,E,0,00,0.0,0.000,M,0.0,M,,*66 $GPRMC,000000.000,V,5202.980,N,01647.127,E,0.00,0.00,010070,,*16 $GPGGA,000000.000,5202.980,N,01647.127,E,0,00,0.0,0.000,M,0.0,M,,*69 $GPRMC,000000.000,V,5202.986,N,01647.157,E,0.00,0.00,010070,,*17 $GPGGA,000000.000,5202.986,N,01647.157,E,0,00,0.0,0.000,M,0.0,M,,*68 $GPRMC,000000.000,V,5202.991,N,01647.207,E,0.00,0.00,010070,,*17 $GPGGA,000000.000,5202.991,N,01647.207,E,0,00,0.0,0.000,M,0.0,M,,*68 $GPRMC,000000.000,V,5202.992,N,01647.266,E,0.00,0.00,010070,,*13 $GPGGA,000000.000,5202.992,N,01647.266,E,0,00,0.0,0.000,M,0.0,M,,*6C $GPRMC,000000.000,V,5202.990,N,01647.327,E,0.00,0.00,010070,,*15 $GPGGA,000000.000,5202.990,N,01647.327,E,0,00,0.0,0.000,M,0.0,M,,*6A $GPRMC,000000.000,V,5202.979,N,01647.389,E,0.00,0.00,010070,,*16 $GPGGA,000000.000,5202.979,N,01647.389,E,0,00,0.0,0.000,M,0.0,M,,*69 $GPRMC,000000.000,V,5202.987,N,01647.442,E,0.00,0.00,010070,,*17 $GPGGA,000000.000,5202.987,N,01647.442,E,0,00,0.0,0.000,M,0.0,M,,*68 $GPRMC,000000.000,V,5203.006,N,01647.498,E,0.00,0.00,010070,,*11 $GPGGA,000000.000,5203.006,N,01647.498,E,0,00,0.0,0.000,M,0.0,M,,*6E $GPRMC,000000.000,V,5203.028,N,01647.556,E,0.00,0.00,010070,,*1E $GPGGA,000000.000,5203.028,N,01647.556,E,0,00,0.0,0.000,M,0.0,M,,*61 $GPRMC,000000.000,V,5203.047,N,01647.608,E,0.00,0.00,010070,,*1F $GPGGA,000000.000,5203.047,N,01647.608,E,0,00,0.0,0.000,M,0.0,M,,*60 $GPRMC,000000.000,V,5203.068,N,01647.726,E,0.00,0.00,010070,,*1F $GPGGA,000000.000,5203.068,N,01647.726,E,0,00,0.0,0.000,M,0.0,M,,*60 $GPRMC,000000.000,V,5203.074,N,01647.845,E,0.00,0.00,010070,,*18 $GPGGA,000000.000,5203.074,N,01647.845,E,0,00,0.0,0.000,M,0.0,M,,*67 $GPRMC,000000.000,V,5203.089,N,01647.987,E,0.00,0.00,010070,,*15 $GPGGA,000000.000,5203.089,N,01647.987,E,0,00,0.0,0.000,M,0.0,M,,*6A $GPRMC,000000.000,V,5203.117,N,01648.325,E,0.00,0.00,010070,,*1E $GPGGA,000000.000,5203.117,N,01648.325,E,0,00,0.0,0.000,M,0.0,M,,*61 $GPRMC,000000.000,V,5203.142,N,01648.522,E,0.00,0.00,010070,,*1F $GPGGA,000000.000,5203.142,N,01648.522,E,0,00,0.0,0.000,M,0.0,M,,*60 $GPRMC,000000.000,V,5203.221,N,01648.551,E,0.00,0.00,010070,,*1D $GPGGA,000000.000,5203.221,N,01648.551,E,0,00,0.0,0.000,M,0.0,M,,*62 $GPRMC,000000.000,V,5203.292,N,01648.593,E,0.00,0.00,010070,,*1B $GPGGA,000000.000,5203.292,N,01648.593,E,0,00,0.0,0.000,M,0.0,M,,*64 $GPRMC,000000.000,V,5203.377,N,01648.647,E,0.00,0.00,010070,,*1B $GPGGA,000000.000,5203.377,N,01648.647,E,0,00,0.0,0.000,M,0.0,M,,*64 $GPRMC,000000.000,V,5203.473,N,01648.697,E,0.00,0.00,010070,,*15 $GPGGA,000000.000,5203.473,N,01648.697,E,0,00,0.0,0.000,M,0.0,M,,*6A $GPRMC,000000.000,V,5203.613,N,01648.772,E,0.00,0.00,010070,,*1B $GPGGA,000000.000,5203.613,N,01648.772,E,0,00,0.0,0.000,M,0.0,M,,*64 $GPRMC,000000.000,V,5203.664,N,01648.846,E,0.00,0.00,010070,,*13 $GPGGA,000000.000,5203.664,N,01648.846,E,0,00,0.0,0.000,M,0.0,M,,*6C $GPRMC,000000.000,V,5203.693,N,01648.880,E,0.00,0.00,010070,,*11 $GPGGA,000000.000,5203.693,N,01648.880,E,0,00,0.0,0.000,M,0.0,M,,*6E $GPRMC,000000.000,V,5203.776,N,01648.925,E,0.00,0.00,010070,,*15 $GPGGA,000000.000,5203.776,N,01648.925,E,0,00,0.0,0.000,M,0.0,M,,*6A $GPRMC,000000.000,V,5203.795,N,01648.926,E,0.00,0.00,010070,,*1B $GPGGA,000000.000,5203.795,N,01648.926,E,0,00,0.0,0.000,M,0.0,M,,*64 $GPRMC,000000.000,V,5203.697,N,01649.259,E,0.00,0.00,010070,,*1A $GPGGA,000000.000,5203.697,N,01649.259,E,0,00,0.0,0.000,M,0.0,M,,*65 $GPRMC,000000.000,V,5203.630,N,01649.490,E,0.00,0.00,010070,,*14 $GPGGA,000000.000,5203.630,N,01649.490,E,0,00,0.0,0.000,M,0.0,M,,*6B $GPRMC,000000.000,V,5203.606,N,01649.552,E,0.00,0.00,010070,,*1E $GPGGA,000000.000,5203.606,N,01649.552,E,0,00,0.0,0.000,M,0.0,M,,*61 $GPRMC,000000.000,V,5203.527,N,01649.677,E,0.00,0.00,010070,,*1A $GPGGA,000000.000,5203.527,N,01649.677,E,0,00,0.0,0.000,M,0.0,M,,*65 $GPRMC,000000.000,V,5203.407,N,01650.006,E,0.00,0.00,010070,,*11 $GPGGA,000000.000,5203.407,N,01650.006,E,0,00,0.0,0.000,M,0.0,M,,*6E $GPRMC,000000.000,V,5203.290,N,01650.265,E,0.00,0.00,010070,,*1E $GPGGA,000000.000,5203.290,N,01650.265,E,0,00,0.0,0.000,M,0.0,M,,*61 $GPRMC,000000.000,V,5203.043,N,01650.734,E,0.00,0.00,010070,,*13 $GPGGA,000000.000,5203.043,N,01650.734,E,0,00,0.0,0.000,M,0.0,M,,*6C $GPRMC,000000.000,V,5202.902,N,01651.256,E,0.00,0.00,010070,,*1E $GPGGA,000000.000,5202.902,N,01651.256,E,0,00,0.0,0.000,M,0.0,M,,*61 $GPRMC,000000.000,V,5202.654,N,01652.199,E,0.00,0.00,010070,,*11 $GPGGA,000000.000,5202.654,N,01652.199,E,0,00,0.0,0.000,M,0.0,M,,*6E $GPRMC,000000.000,V,5202.595,N,01652.201,E,0.00,0.00,010070,,*1D $GPGGA,000000.000,5202.595,N,01652.201,E,0,00,0.0,0.000,M,0.0,M,,*62 $GPRMC,000000.000,V,5202.567,N,01652.150,E,0.00,0.00,010070,,*17 $GPGGA,000000.000,5202.567,N,01652.150,E,0,00,0.0,0.000,M,0.0,M,,*68 $GPRMC,000000.000,V,5202.528,N,01652.245,E,0.00,0.00,010070,,*1B $GPGGA,000000.000,5202.528,N,01652.245,E,0,00,0.0,0.000,M,0.0,M,,*64 $GPRMC,000000.000,V,5202.239,N,01653.110,E,0.00,0.00,010070,,*1E $GPGGA,000000.000,5202.239,N,01653.110,E,0,00,0.0,0.000,M,0.0,M,,*61 $GPRMC,000000.000,V,5201.977,N,01653.912,E,0.00,0.00,010070,,*16 $GPGGA,000000.000,5201.977,N,01653.912,E,0,00,0.0,0.000,M,0.0,M,,*69 $GPRMC,000000.000,V,5201.658,N,01654.753,E,0.00,0.00,010070,,*18 $GPGGA,000000.000,5201.658,N,01654.753,E,0,00,0.0,0.000,M,0.0,M,,*67 $GPRMC,000000.000,V,5201.607,N,01654.852,E,0.00,0.00,010070,,*1C $GPGGA,000000.000,5201.607,N,01654.852,E,0,00,0.0,0.000,M,0.0,M,,*63 $GPRMC,000000.000,V,5201.511,N,01655.004,E,0.00,0.00,010070,,*12 $GPGGA,000000.000,5201.511,N,01655.004,E,0,00,0.0,0.000,M,0.0,M,,*6D $GPRMC,000000.000,V,5201.452,N,01655.048,E,0.00,0.00,010070,,*1C $GPGGA,000000.000,5201.452,N,01655.048,E,0,00,0.0,0.000,M,0.0,M,,*63 $GPRMC,000000.000,V,5201.425,N,01655.056,E,0.00,0.00,010070,,*13 $GPGGA,000000.000,5201.425,N,01655.056,E,0,00,0.0,0.000,M,0.0,M,,*6C $GPRMC,000000.000,V,5201.420,N,01654.977,E,0.00,0.00,010070,,*1D $GPGGA,000000.000,5201.420,N,01654.977,E,0,00,0.0,0.000,M,0.0,M,,*62 $GPRMC,000000.000,V,5201.389,N,01654.951,E,0.00,0.00,010070,,*1D $GPGGA,000000.000,5201.389,N,01654.951,E,0,00,0.0,0.000,M,0.0,M,,*62 $GPRMC,000000.000,V,5201.154,N,01654.743,E,0.00,0.00,010070,,*12 $GPGGA,000000.000,5201.154,N,01654.743,E,0,00,0.0,0.000,M,0.0,M,,*6D $GPRMC,000000.000,V,5201.128,N,01654.731,E,0.00,0.00,010070,,*1C $GPGGA,000000.000,5201.128,N,01654.731,E,0,00,0.0,0.000,M,0.0,M,,*63 $GPRMC,000000.000,V,5201.104,N,01654.726,E,0.00,0.00,010070,,*14 $GPGGA,000000.000,5201.104,N,01654.726,E,0,00,0.0,0.000,M,0.0,M,,*6B $GPRMC,000000.000,V,5201.081,N,01654.727,E,0.00,0.00,010070,,*19 $GPGGA,000000.000,5201.081,N,01654.727,E,0,00,0.0,0.000,M,0.0,M,,*66 $GPRMC,000000.000,V,5201.058,N,01654.730,E,0.00,0.00,010070,,*1B $GPGGA,000000.000,5201.058,N,01654.730,E,0,00,0.0,0.000,M,0.0,M,,*64 $GPRMC,000000.000,V,5201.041,N,01654.745,E,0.00,0.00,010070,,*11 $GPGGA,000000.000,5201.041,N,01654.745,E,0,00,0.0,0.000,M,0.0,M,,*6E $GPRMC,000000.000,V,5201.017,N,01654.763,E,0.00,0.00,010070,,*16 $GPGGA,000000.000,5201.017,N,01654.763,E,0,00,0.0,0.000,M,0.0,M,,*69 $GPRMC,000000.000,V,5201.001,N,01654.790,E,0.00,0.00,010070,,*1D $GPGGA,000000.000,5201.001,N,01654.790,E,0,00,0.0,0.000,M,0.0,M,,*62 $GPRMC,000000.000,V,5200.979,N,01654.825,E,0.00,0.00,010070,,*1B $GPGGA,000000.000,5200.979,N,01654.825,E,0,00,0.0,0.000,M,0.0,M,,*64 $GPRMC,000000.000,V,5200.947,N,01654.899,E,0.00,0.00,010070,,*11 $GPGGA,000000.000,5200.947,N,01654.899,E,0,00,0.0,0.000,M,0.0,M,,*6E $GPRMC,000000.000,V,5200.709,N,01655.483,E,0.00,0.00,010070,,*13 $GPGGA,000000.000,5200.709,N,01655.483,E,0,00,0.0,0.000,M,0.0,M,,*6C $GPRMC,000000.000,V,5200.679,N,01655.553,E,0.00,0.00,010070,,*19 $GPGGA,000000.000,5200.679,N,01655.553,E,0,00,0.0,0.000,M,0.0,M,,*66 $GPRMC,000000.000,V,5200.668,N,01655.590,E,0.00,0.00,010070,,*16 $GPGGA,000000.000,5200.668,N,01655.590,E,0,00,0.0,0.000,M,0.0,M,,*69 $GPRMC,000000.000,V,5200.664,N,01655.641,E,0.00,0.00,010070,,*15 $GPGGA,000000.000,5200.664,N,01655.641,E,0,00,0.0,0.000,M,0.0,M,,*6A $GPRMC,000000.000,V,5200.656,N,01655.711,E,0.00,0.00,010070,,*10 $GPGGA,000000.000,5200.656,N,01655.711,E,0,00,0.0,0.000,M,0.0,M,,*6F $GPRMC,000000.000,V,5200.654,N,01655.741,E,0.00,0.00,010070,,*17 $GPGGA,000000.000,5200.654,N,01655.741,E,0,00,0.0,0.000,M,0.0,M,,*68 $GPRMC,000000.000,V,5200.341,N,01656.864,E,0.00,0.00,010070,,*1D $GPGGA,000000.000,5200.341,N,01656.864,E,0,00,0.0,0.000,M,0.0,M,,*62 $GPRMC,000000.000,V,5200.327,N,01656.880,E,0.00,0.00,010070,,*17 $GPGGA,000000.000,5200.327,N,01656.880,E,0,00,0.0,0.000,M,0.0,M,,*68 $GPRMC,000000.000,V,5200.310,N,01656.907,E,0.00,0.00,010070,,*1D $GPGGA,000000.000,5200.310,N,01656.907,E,0,00,0.0,0.000,M,0.0,M,,*62 $GPRMC,000000.000,V,5200.287,N,01656.921,E,0.00,0.00,010070,,*16 $GPGGA,000000.000,5200.287,N,01656.921,E,0,00,0.0,0.000,M,0.0,M,,*69 $GPRMC,000000.000,V,5200.268,N,01656.938,E,0.00,0.00,010070,,*1F $GPGGA,000000.000,5200.268,N,01656.938,E,0,00,0.0,0.000,M,0.0,M,,*60 $GPRMC,000000.000,V,5200.258,N,01656.962,E,0.00,0.00,010070,,*13 $GPGGA,000000.000,5200.258,N,01656.962,E,0,00,0.0,0.000,M,0.0,M,,*6C $GPRMC,000000.000,V,5200.253,N,01656.992,E,0.00,0.00,010070,,*17 $GPGGA,000000.000,5200.253,N,01656.992,E,0,00,0.0,0.000,M,0.0,M,,*68 $GPRMC,000000.000,V,5200.253,N,01657.025,E,0.00,0.00,010070,,*13 $GPGGA,000000.000,5200.253,N,01657.025,E,0,00,0.0,0.000,M,0.0,M,,*6C $GPRMC,000000.000,V,5200.256,N,01657.067,E,0.00,0.00,010070,,*10 $GPGGA,000000.000,5200.256,N,01657.067,E,0,00,0.0,0.000,M,0.0,M,,*6F $GPRMC,000000.000,V,5200.262,N,01657.098,E,0.00,0.00,010070,,*17 $GPGGA,000000.000,5200.262,N,01657.098,E,0,00,0.0,0.000,M,0.0,M,,*68 $GPRMC,000000.000,V,5200.275,N,01657.141,E,0.00,0.00,010070,,*14 $GPGGA,000000.000,5200.275,N,01657.141,E,0,00,0.0,0.000,M,0.0,M,,*6B $GPRMC,000000.000,V,5200.287,N,01657.170,E,0.00,0.00,010070,,*1B $GPGGA,000000.000,5200.287,N,01657.170,E,0,00,0.0,0.000,M,0.0,M,,*64 $GPRMC,000000.000,V,5200.287,N,01657.206,E,0.00,0.00,010070,,*19 $GPGGA,000000.000,5200.287,N,01657.206,E,0,00,0.0,0.000,M,0.0,M,,*66 $GPRMC,000000.000,V,5200.268,N,01657.239,E,0.00,0.00,010070,,*14 $GPGGA,000000.000,5200.268,N,01657.239,E,0,00,0.0,0.000,M,0.0,M,,*6B $GPRMC,000000.000,V,5200.191,N,01657.336,E,0.00,0.00,010070,,*1F $GPGGA,000000.000,5200.191,N,01657.336,E,0,00,0.0,0.000,M,0.0,M,,*60 $GPRMC,000000.000,V,5200.153,N,01657.401,E,0.00,0.00,010070,,*12 $GPGGA,000000.000,5200.153,N,01657.401,E,0,00,0.0,0.000,M,0.0,M,,*6D $GPRMC,000000.000,V,5200.083,N,01657.519,E,0.00,0.00,010070,,*16 $GPGGA,000000.000,5200.083,N,01657.519,E,0,00,0.0,0.000,M,0.0,M,,*69 $GPRMC,000000.000,V,5159.992,N,01657.686,E,0.00,0.00,010070,,*15 $GPGGA,000000.000,5159.992,N,01657.686,E,0,00,0.0,0.000,M,0.0,M,,*6A $GPRMC,000000.000,V,5159.737,N,01657.864,E,0.00,0.00,010070,,*16 $GPGGA,000000.000,5159.737,N,01657.864,E,0,00,0.0,0.000,M,0.0,M,,*69 $GPRMC,000000.000,V,5159.526,N,01658.005,E,0.00,0.00,010070,,*14 $GPGGA,000000.000,5159.526,N,01658.005,E,0,00,0.0,0.000,M,0.0,M,,*6B $GPRMC,000000.000,V,5159.488,N,01658.348,E,0.00,0.00,010070,,*1B $GPGGA,000000.000,5159.488,N,01658.348,E,0,00,0.0,0.000,M,0.0,M,,*64 $GPRMC,000000.000,V,5159.476,N,01658.554,E,0.00,0.00,010070,,*11 $GPGGA,000000.000,5159.476,N,01658.554,E,0,00,0.0,0.000,M,0.0,M,,*6E $GPRMC,000000.000,V,5159.570,N,01658.749,E,0.00,0.00,010070,,*18 $GPGGA,000000.000,5159.570,N,01658.749,E,0,00,0.0,0.000,M,0.0,M,,*67 $GPRMC,000000.000,V,5159.496,N,01658.838,E,0.00,0.00,010070,,*18 $GPGGA,000000.000,5159.496,N,01658.838,E,0,00,0.0,0.000,M,0.0,M,,*67 $GPRMC,000000.000,V,5159.516,N,01658.985,E,0.00,0.00,010070,,*16 $GPGGA,000000.000,5159.516,N,01658.985,E,0,00,0.0,0.000,M,0.0,M,,*69 $GPRMC,000000.000,V,5159.534,N,01659.018,E,0.00,0.00,010070,,*1A $GPGGA,000000.000,5159.534,N,01659.018,E,0,00,0.0,0.000,M,0.0,M,,*65 $GPRMC,000000.000,V,5159.569,N,01659.004,E,0.00,0.00,010070,,*1F $GPGGA,000000.000,5159.569,N,01659.004,E,0,00,0.0,0.000,M,0.0,M,,*60 $GPRMC,000000.000,V,5159.591,N,01659.004,E,0.00,0.00,010070,,*18 $GPGGA,000000.000,5159.591,N,01659.004,E,0,00,0.0,0.000,M,0.0,M,,*67 $GPRMC,000000.000,V,5159.615,N,01659.000,E,0.00,0.00,010070,,*13 $GPGGA,000000.000,5159.615,N,01659.000,E,0,00,0.0,0.000,M,0.0,M,,*6C $GPRMC,000000.000,V,5159.631,N,01658.999,E,0.00,0.00,010070,,*1D $GPGGA,000000.000,5159.631,N,01658.999,E,0,00,0.0,0.000,M,0.0,M,,*62 $GPRMC,000000.000,V,5159.652,N,01659.002,E,0.00,0.00,010070,,*12 $GPGGA,000000.000,5159.652,N,01659.002,E,0,00,0.0,0.000,M,0.0,M,,*6D $GPRMC,000000.000,V,5159.667,N,01659.025,E,0.00,0.00,010070,,*11 $GPGGA,000000.000,5159.667,N,01659.025,E,0,00,0.0,0.000,M,0.0,M,,*6E $GPRMC,000000.000,V,5159.682,N,01659.036,E,0.00,0.00,010070,,*18 $GPGGA,000000.000,5159.682,N,01659.036,E,0,00,0.0,0.000,M,0.0,M,,*67 $GPRMC,000000.000,V,5159.689,N,01659.008,E,0.00,0.00,010070,,*1E $GPGGA,000000.000,5159.689,N,01659.008,E,0,00,0.0,0.000,M,0.0,M,,*61 $GPRMC,000000.000,V,5159.691,N,01658.969,E,0.00,0.00,010070,,*18 $GPGGA,000000.000,5159.691,N,01658.969,E,0,00,0.0,0.000,M,0.0,M,,*67 $GPRMC,000000.000,V,5159.697,N,01658.930,E,0.00,0.00,010070,,*12 $GPGGA,000000.000,5159.697,N,01658.930,E,0,00,0.0,0.000,M,0.0,M,,*6D $GPRMC,000000.000,V,5159.698,N,01658.887,E,0.00,0.00,010070,,*10 $GPGGA,000000.000,5159.698,N,01658.887,E,0,00,0.0,0.000,M,0.0,M,,*6F $GPRMC,000000.000,V,5159.703,N,01658.864,E,0.00,0.00,010070,,*1E $GPGGA,000000.000,5159.703,N,01658.864,E,0,00,0.0,0.000,M,0.0,M,,*61 $GPRMC,000000.000,V,5159.718,N,01658.828,E,0.00,0.00,010070,,*1C $GPGGA,000000.000,5159.718,N,01658.828,E,0,00,0.0,0.000,M,0.0,M,,*63 $GPRMC,000000.000,V,5159.729,N,01658.785,E,0.00,0.00,010070,,*16 $GPGGA,000000.000,5159.729,N,01658.785,E,0,00,0.0,0.000,M,0.0,M,,*69 $GPRMC,000000.000,V,5159.737,N,01658.756,E,0.00,0.00,010070,,*17 $GPGGA,000000.000,5159.737,N,01658.756,E,0,00,0.0,0.000,M,0.0,M,,*68 $GPRMC,000000.000,V,5159.742,N,01658.727,E,0.00,0.00,010070,,*13 $GPGGA,000000.000,5159.742,N,01658.727,E,0,00,0.0,0.000,M,0.0,M,,*6C $GPRMC,000000.000,V,5159.739,N,01658.691,E,0.00,0.00,010070,,*13 $GPGGA,000000.000,5159.739,N,01658.691,E,0,00,0.0,0.000,M,0.0,M,,*6C $GPRMC,000000.000,V,5159.743,N,01658.667,E,0.00,0.00,010070,,*17 $GPGGA,000000.000,5159.743,N,01658.667,E,0,00,0.0,0.000,M,0.0,M,,*68 $GPRMC,000000.000,V,5159.754,N,01658.644,E,0.00,0.00,010070,,*10 $GPGGA,000000.000,5159.754,N,01658.644,E,0,00,0.0,0.000,M,0.0,M,,*6F $GPRMC,000000.000,V,5159.769,N,01658.633,E,0.00,0.00,010070,,*1E $GPGGA,000000.000,5159.769,N,01658.633,E,0,00,0.0,0.000,M,0.0,M,,*61 $GPRMC,000000.000,V,5159.779,N,01658.609,E,0.00,0.00,010070,,*16 $GPGGA,000000.000,5159.779,N,01658.609,E,0,00,0.0,0.000,M,0.0,M,,*69 $GPRMC,000000.000,V,5159.785,N,01658.595,E,0.00,0.00,010070,,*13 $GPGGA,000000.000,5159.785,N,01658.595,E,0,00,0.0,0.000,M,0.0,M,,*6C $GPRMC,000000.000,V,5159.687,N,01658.516,E,0.00,0.00,010070,,*1B $GPGGA,000000.000,5159.687,N,01658.516,E,0,00,0.0,0.000,M,0.0,M,,*64 $GPRMC,000000.000,V,5159.650,N,01658.762,E,0.00,0.00,010070,,*10 $GPGGA,000000.000,5159.650,N,01658.762,E,0,00,0.0,0.000,M,0.0,M,,*6F $GPRMC,000000.000,V,5159.561,N,01658.748,E,0.00,0.00,010070,,*19 $GPGGA,000000.000,5159.561,N,01658.748,E,0,00,0.0,0.000,M,0.0,M,,*66 $GPRMC,000000.000,V,5159.471,N,01658.567,E,0.00,0.00,010070,,*16 $GPGGA,000000.000,5159.471,N,01658.567,E,0,00,0.0,0.000,M,0.0,M,,*69 $GPRMC,000000.000,V,5159.198,N,01658.135,E,0.00,0.00,010070,,*17 $GPGGA,000000.000,5159.198,N,01658.135,E,0,00,0.0,0.000,M,0.0,M,,*68 $GPRMC,000000.000,V,5158.979,N,01657.797,E,0.00,0.00,010070,,*10 $GPGGA,000000.000,5158.979,N,01657.797,E,0,00,0.0,0.000,M,0.0,M,,*6F $GPRMC,000000.000,V,5158.899,N,01657.647,E,0.00,0.00,010070,,*13 $GPGGA,000000.000,5158.899,N,01657.647,E,0,00,0.0,0.000,M,0.0,M,,*6C $GPRMC,000000.000,V,5158.853,N,01657.327,E,0.00,0.00,010070,,*16 $GPGGA,000000.000,5158.853,N,01657.327,E,0,00,0.0,0.000,M,0.0,M,,*69 $GPRMC,000000.000,V,5158.761,N,01656.747,E,0.00,0.00,010070,,*1B $GPGGA,000000.000,5158.761,N,01656.747,E,0,00,0.0,0.000,M,0.0,M,,*64 $GPRMC,000000.000,V,5158.750,N,01656.644,E,0.00,0.00,010070,,*1B $GPGGA,000000.000,5158.750,N,01656.644,E,0,00,0.0,0.000,M,0.0,M,,*64 $GPRMC,000000.000,V,5158.748,N,01656.411,E,0.00,0.00,010070,,*10 $GPGGA,000000.000,5158.748,N,01656.411,E,0,00,0.0,0.000,M,0.0,M,,*6F $GPRMC,000000.000,V,5158.780,N,01656.319,E,0.00,0.00,010070,,*1B $GPGGA,000000.000,5158.780,N,01656.319,E,0,00,0.0,0.000,M,0.0,M,,*64 $GPRMC,000000.000,V,5158.699,N,01656.301,E,0.00,0.00,010070,,*1B $GPGGA,000000.000,5158.699,N,01656.301,E,0,00,0.0,0.000,M,0.0,M,,*64 $GPRMC,000000.000,V,5158.661,N,01656.268,E,0.00,0.00,010070,,*12 $GPGGA,000000.000,5158.661,N,01656.268,E,0,00,0.0,0.000,M,0.0,M,,*6D $GPRMC,000000.000,V,5158.631,N,01656.256,E,0.00,0.00,010070,,*1A $GPGGA,000000.000,5158.631,N,01656.256,E,0,00,0.0,0.000,M,0.0,M,,*65 $GPRMC,000000.000,V,5158.577,N,01656.267,E,0.00,0.00,010070,,*19 $GPGGA,000000.000,5158.577,N,01656.267,E,0,00,0.0,0.000,M,0.0,M,,*66 $GPRMC,000000.000,V,5158.515,N,01656.288,E,0.00,0.00,010070,,*1C $GPGGA,000000.000,5158.515,N,01656.288,E,0,00,0.0,0.000,M,0.0,M,,*63 $GPRMC,000000.000,V,5158.452,N,01656.114,E,0.00,0.00,010070,,*18 $GPGGA,000000.000,5158.452,N,01656.114,E,0,00,0.0,0.000,M,0.0,M,,*67 $GPRMC,000000.000,V,5158.358,N,01655.856,E,0.00,0.00,010070,,*19 $GPGGA,000000.000,5158.358,N,01655.856,E,0,00,0.0,0.000,M,0.0,M,,*66 $GPRMC,000000.000,V,5158.240,N,01655.549,E,0.00,0.00,010070,,*12 $GPGGA,000000.000,5158.240,N,01655.549,E,0,00,0.0,0.000,M,0.0,M,,*6D $GPRMC,000000.000,V,5158.182,N,01655.120,E,0.00,0.00,010070,,*14 $GPGGA,000000.000,5158.182,N,01655.120,E,0,00,0.0,0.000,M,0.0,M,,*6B $GPRMC,000000.000,V,5158.058,N,01654.216,E,0.00,0.00,010070,,*15 $GPGGA,000000.000,5158.058,N,01654.216,E,0,00,0.0,0.000,M,0.0,M,,*6A $GPRMC,000000.000,V,5158.048,N,01654.040,E,0.00,0.00,010070,,*15 $GPGGA,000000.000,5158.048,N,01654.040,E,0,00,0.0,0.000,M,0.0,M,,*6A $GPRMC,000000.000,V,5158.022,N,01653.970,E,0.00,0.00,010070,,*14 $GPGGA,000000.000,5158.022,N,01653.970,E,0,00,0.0,0.000,M,0.0,M,,*6B $GPRMC,000000.000,V,5158.007,N,01653.937,E,0.00,0.00,010070,,*10 $GPGGA,000000.000,5158.007,N,01653.937,E,0,00,0.0,0.000,M,0.0,M,,*6F $GPRMC,000000.000,V,5157.998,N,01653.917,E,0.00,0.00,010070,,*12 $GPGGA,000000.000,5157.998,N,01653.917,E,0,00,0.0,0.000,M,0.0,M,,*6D $GPRMC,000000.000,V,5157.973,N,01653.947,E,0.00,0.00,010070,,*12 $GPGGA,000000.000,5157.973,N,01653.947,E,0,00,0.0,0.000,M,0.0,M,,*6D $GPRMC,000000.000,V,5157.952,N,01653.896,E,0.00,0.00,010070,,*1C $GPGGA,000000.000,5157.952,N,01653.896,E,0,00,0.0,0.000,M,0.0,M,,*63 $GPRMC,000000.000,V,5157.933,N,01653.849,E,0.00,0.00,010070,,*19 $GPGGA,000000.000,5157.933,N,01653.849,E,0,00,0.0,0.000,M,0.0,M,,*66 $GPRMC,000000.000,V,5157.917,N,01653.799,E,0.00,0.00,010070,,*1D $GPGGA,000000.000,5157.917,N,01653.799,E,0,00,0.0,0.000,M,0.0,M,,*62 $GPRMC,000000.000,V,5157.906,N,01653.645,E,0.00,0.00,010070,,*1D $GPGGA,000000.000,5157.906,N,01653.645,E,0,00,0.0,0.000,M,0.0,M,,*62 $GPRMC,000000.000,V,5157.883,N,01653.650,E,0.00,0.00,010070,,*15 $GPGGA,000000.000,5157.883,N,01653.650,E,0,00,0.0,0.000,M,0.0,M,,*6A $GPRMC,000000.000,V,5157.863,N,01653.684,E,0.00,0.00,010070,,*12 $GPGGA,000000.000,5157.863,N,01653.684,E,0,00,0.0,0.000,M,0.0,M,,*6D $GPRMC,000000.000,V,5157.856,N,01653.695,E,0.00,0.00,010070,,*14 $GPGGA,000000.000,5157.856,N,01653.695,E,0,00,0.0,0.000,M,0.0,M,,*6B $GPRMC,000000.000,V,5157.846,N,01653.587,E,0.00,0.00,010070,,*15 $GPGGA,000000.000,5157.846,N,01653.587,E,0,00,0.0,0.000,M,0.0,M,,*6A $GPRMC,000000.000,V,5157.781,N,01653.589,E,0.00,0.00,010070,,*1F $GPGGA,000000.000,5157.781,N,01653.589,E,0,00,0.0,0.000,M,0.0,M,,*60 $GPRMC,000000.000,V,5157.706,N,01653.569,E,0.00,0.00,010070,,*1E $GPGGA,000000.000,5157.706,N,01653.569,E,0,00,0.0,0.000,M,0.0,M,,*61 $GPRMC,000000.000,V,5157.604,N,01653.567,E,0.00,0.00,010070,,*13 $GPGGA,000000.000,5157.604,N,01653.567,E,0,00,0.0,0.000,M,0.0,M,,*6C $GPRMC,000000.000,V,5157.530,N,01653.563,E,0.00,0.00,010070,,*13 $GPGGA,000000.000,5157.530,N,01653.563,E,0,00,0.0,0.000,M,0.0,M,,*6C $GPRMC,000000.000,V,5157.372,N,01653.467,E,0.00,0.00,010070,,*16 $GPGGA,000000.000,5157.372,N,01653.467,E,0,00,0.0,0.000,M,0.0,M,,*69 $GPRMC,000000.000,V,5157.282,N,01653.388,E,0.00,0.00,010070,,*1E $GPGGA,000000.000,5157.282,N,01653.388,E,0,00,0.0,0.000,M,0.0,M,,*61 $GPRMC,000000.000,V,5157.253,N,01653.368,E,0.00,0.00,010070,,*1C $GPGGA,000000.000,5157.253,N,01653.368,E,0,00,0.0,0.000,M,0.0,M,,*63 $GPRMC,000000.000,V,5157.045,N,01653.316,E,0.00,0.00,010070,,*10 $GPGGA,000000.000,5157.045,N,01653.316,E,0,00,0.0,0.000,M,0.0,M,,*6F $GPRMC,000000.000,V,5156.927,N,01653.272,E,0.00,0.00,010070,,*1F $GPGGA,000000.000,5156.927,N,01653.272,E,0,00,0.0,0.000,M,0.0,M,,*60 $GPRMC,000000.000,V,5156.807,N,01653.227,E,0.00,0.00,010070,,*1C $GPGGA,000000.000,5156.807,N,01653.227,E,0,00,0.0,0.000,M,0.0,M,,*63 $GPRMC,000000.000,V,5156.749,N,01653.230,E,0.00,0.00,010070,,*1F $GPGGA,000000.000,5156.749,N,01653.230,E,0,00,0.0,0.000,M,0.0,M,,*60 $GPRMC,000000.000,V,5156.617,N,01653.175,E,0.00,0.00,010070,,*17 $GPGGA,000000.000,5156.617,N,01653.175,E,0,00,0.0,0.000,M,0.0,M,,*68 $GPRMC,000000.000,V,5156.535,N,01653.139,E,0.00,0.00,010070,,*1C $GPGGA,000000.000,5156.535,N,01653.139,E,0,00,0.0,0.000,M,0.0,M,,*63 $GPRMC,000000.000,V,5156.495,N,01653.127,E,0.00,0.00,010070,,*18 $GPGGA,000000.000,5156.495,N,01653.127,E,0,00,0.0,0.000,M,0.0,M,,*67 $GPRMC,000000.000,V,5156.446,N,01653.148,E,0.00,0.00,010070,,*1F $GPGGA,000000.000,5156.446,N,01653.148,E,0,00,0.0,0.000,M,0.0,M,,*60 $GPRMC,000000.000,V,5156.402,N,01653.175,E,0.00,0.00,010070,,*11 $GPGGA,000000.000,5156.402,N,01653.175,E,0,00,0.0,0.000,M,0.0,M,,*6E $GPRMC,000000.000,V,5156.335,N,01653.224,E,0.00,0.00,010070,,*15 $GPGGA,000000.000,5156.335,N,01653.224,E,0,00,0.0,0.000,M,0.0,M,,*6A $GPRMC,000000.000,V,5156.287,N,01653.248,E,0.00,0.00,010070,,*17 $GPGGA,000000.000,5156.287,N,01653.248,E,0,00,0.0,0.000,M,0.0,M,,*68 $GPRMC,000000.000,V,5156.223,N,01653.274,E,0.00,0.00,010070,,*16 $GPGGA,000000.000,5156.223,N,01653.274,E,0,00,0.0,0.000,M,0.0,M,,*69 $GPRMC,000000.000,V,5156.150,N,01653.285,E,0.00,0.00,010070,,*1F $GPGGA,000000.000,5156.150,N,01653.285,E,0,00,0.0,0.000,M,0.0,M,,*60 $GPRMC,000000.000,V,5156.034,N,01653.283,E,0.00,0.00,010070,,*1A $GPGGA,000000.000,5156.034,N,01653.283,E,0,00,0.0,0.000,M,0.0,M,,*65 $GPRMC,000000.000,V,5155.993,N,01653.275,E,0.00,0.00,010070,,*14 $GPGGA,000000.000,5155.993,N,01653.275,E,0,00,0.0,0.000,M,0.0,M,,*6B $GPRMC,000000.000,V,5155.952,N,01653.257,E,0.00,0.00,010070,,*19 $GPGGA,000000.000,5155.952,N,01653.257,E,0,00,0.0,0.000,M,0.0,M,,*66 $GPRMC,000000.000,V,5155.919,N,01653.213,E,0.00,0.00,010070,,*16 $GPGGA,000000.000,5155.919,N,01653.213,E,0,00,0.0,0.000,M,0.0,M,,*69 $GPRMC,000000.000,V,5155.893,N,01653.148,E,0.00,0.00,010070,,*18 $GPGGA,000000.000,5155.893,N,01653.148,E,0,00,0.0,0.000,M,0.0,M,,*67 $GPRMC,000000.000,V,5155.884,N,01653.064,E,0.00,0.00,010070,,*11 $GPGGA,000000.000,5155.884,N,01653.064,E,0,00,0.0,0.000,M,0.0,M,,*6E $GPRMC,000000.000,V,5155.873,N,01652.927,E,0.00,0.00,010070,,*16 $GPGGA,000000.000,5155.873,N,01652.927,E,0,00,0.0,0.000,M,0.0,M,,*69 $GPRMC,000000.000,V,5155.867,N,01652.492,E,0.00,0.00,010070,,*10 $GPGGA,000000.000,5155.867,N,01652.492,E,0,00,0.0,0.000,M,0.0,M,,*6F $GPRMC,000000.000,V,5155.884,N,01652.392,E,0.00,0.00,010070,,*1A $GPGGA,000000.000,5155.884,N,01652.392,E,0,00,0.0,0.000,M,0.0,M,,*65 $GPRMC,000000.000,V,5155.889,N,01652.261,E,0.00,0.00,010070,,*1A $GPGGA,000000.000,5155.889,N,01652.261,E,0,00,0.0,0.000,M,0.0,M,,*65 $GPRMC,000000.000,V,5155.919,N,01651.694,E,0.00,0.00,010070,,*1F $GPGGA,000000.000,5155.919,N,01651.694,E,0,00,0.0,0.000,M,0.0,M,,*60 $GPRMC,000000.000,V,5155.937,N,01651.295,E,0.00,0.00,010070,,*16 $GPGGA,000000.000,5155.937,N,01651.295,E,0,00,0.0,0.000,M,0.0,M,,*69 $GPRMC,000000.000,V,5155.922,N,01651.250,E,0.00,0.00,010070,,*1B $GPGGA,000000.000,5155.922,N,01651.250,E,0,00,0.0,0.000,M,0.0,M,,*64 $GPRMC,000000.000,V,5155.911,N,01651.215,E,0.00,0.00,010070,,*1A $GPGGA,000000.000,5155.911,N,01651.215,E,0,00,0.0,0.000,M,0.0,M,,*65 $GPRMC,000000.000,V,5155.896,N,01651.167,E,0.00,0.00,010070,,*12 $GPGGA,000000.000,5155.896,N,01651.167,E,0,00,0.0,0.000,M,0.0,M,,*6D $GPRMC,000000.000,V,5155.877,N,01651.108,E,0.00,0.00,010070,,*14 $GPGGA,000000.000,5155.877,N,01651.108,E,0,00,0.0,0.000,M,0.0,M,,*6B $GPRMC,000000.000,V,5155.865,N,01651.052,E,0.00,0.00,010070,,*19 $GPGGA,000000.000,5155.865,N,01651.052,E,0,00,0.0,0.000,M,0.0,M,,*66 $GPRMC,000000.000,V,5155.852,N,01650.992,E,0.00,0.00,010070,,*19 $GPGGA,000000.000,5155.852,N,01650.992,E,0,00,0.0,0.000,M,0.0,M,,*66 $GPRMC,000000.000,V,5155.830,N,01650.928,E,0.00,0.00,010070,,*1C $GPGGA,000000.000,5155.830,N,01650.928,E,0,00,0.0,0.000,M,0.0,M,,*63 $GPRMC,000000.000,V,5155.819,N,01650.855,E,0.00,0.00,010070,,*1C $GPGGA,000000.000,5155.819,N,01650.855,E,0,00,0.0,0.000,M,0.0,M,,*63 $GPRMC,000000.000,V,5155.811,N,01650.811,E,0.00,0.00,010070,,*14 $GPGGA,000000.000,5155.811,N,01650.811,E,0,00,0.0,0.000,M,0.0,M,,*6B $GPRMC,000000.000,V,5155.810,N,01650.734,E,0.00,0.00,010070,,*1D $GPGGA,000000.000,5155.810,N,01650.734,E,0,00,0.0,0.000,M,0.0,M,,*62 $GPRMC,000000.000,V,5155.807,N,01650.676,E,0.00,0.00,010070,,*1C $GPGGA,000000.000,5155.807,N,01650.676,E,0,00,0.0,0.000,M,0.0,M,,*63 $GPRMC,000000.000,V,5155.811,N,01650.624,E,0.00,0.00,010070,,*1C $GPGGA,000000.000,5155.811,N,01650.624,E,0,00,0.0,0.000,M,0.0,M,,*63 $GPRMC,000000.000,V,5155.818,N,01650.588,E,0.00,0.00,010070,,*10 $GPGGA,000000.000,5155.818,N,01650.588,E,0,00,0.0,0.000,M,0.0,M,,*6F $GPRMC,000000.000,V,5155.837,N,01650.565,E,0.00,0.00,010070,,*1E $GPGGA,000000.000,5155.837,N,01650.565,E,0,00,0.0,0.000,M,0.0,M,,*61 $GPRMC,000000.000,V,5155.863,N,01650.544,E,0.00,0.00,010070,,*1C $GPGGA,000000.000,5155.863,N,01650.544,E,0,00,0.0,0.000,M,0.0,M,,*63 $GPRMC,000000.000,V,5155.893,N,01650.530,E,0.00,0.00,010070,,*10 $GPGGA,000000.000,5155.893,N,01650.530,E,0,00,0.0,0.000,M,0.0,M,,*6F $GPRMC,000000.000,V,5155.915,N,01650.515,E,0.00,0.00,010070,,*18 $GPGGA,000000.000,5155.915,N,01650.515,E,0,00,0.0,0.000,M,0.0,M,,*67 $GPRMC,000000.000,V,5155.931,N,01650.498,E,0.00,0.00,010070,,*1A $GPGGA,000000.000,5155.931,N,01650.498,E,0,00,0.0,0.000,M,0.0,M,,*65 $GPRMC,000000.000,V,5155.951,N,01650.481,E,0.00,0.00,010070,,*14 $GPGGA,000000.000,5155.951,N,01650.481,E,0,00,0.0,0.000,M,0.0,M,,*6B $GPRMC,000000.000,V,5156.069,N,01650.396,E,0.00,0.00,010070,,*14 $GPGGA,000000.000,5156.069,N,01650.396,E,0,00,0.0,0.000,M,0.0,M,,*6B $GPRMC,000000.000,V,5156.331,N,01650.212,E,0.00,0.00,010070,,*17 $GPGGA,000000.000,5156.331,N,01650.212,E,0,00,0.0,0.000,M,0.0,M,,*68 $GPRMC,000000.000,V,5156.654,N,01649.986,E,0.00,0.00,010070,,*1F $GPGGA,000000.000,5156.654,N,01649.986,E,0,00,0.0,0.000,M,0.0,M,,*60 $GPRMC,000000.000,V,5156.689,N,01649.961,E,0.00,0.00,010070,,*16 $GPGGA,000000.000,5156.689,N,01649.961,E,0,00,0.0,0.000,M,0.0,M,,*69 $GPRMC,000000.000,V,5156.714,N,01649.951,E,0.00,0.00,010070,,*10 $GPGGA,000000.000,5156.714,N,01649.951,E,0,00,0.0,0.000,M,0.0,M,,*6F $GPRMC,000000.000,V,5156.735,N,01649.946,E,0.00,0.00,010070,,*15 $GPGGA,000000.000,5156.735,N,01649.946,E,0,00,0.0,0.000,M,0.0,M,,*6A $GPRMC,000000.000,V,5156.766,N,01649.933,E,0.00,0.00,010070,,*11 $GPGGA,000000.000,5156.766,N,01649.933,E,0,00,0.0,0.000,M,0.0,M,,*6E $GPRMC,000000.000,V,5156.796,N,01649.916,E,0.00,0.00,010070,,*19 $GPGGA,000000.000,5156.796,N,01649.916,E,0,00,0.0,0.000,M,0.0,M,,*66 $GPRMC,000000.000,V,5156.829,N,01649.893,E,0.00,0.00,010070,,*1E $GPGGA,000000.000,5156.829,N,01649.893,E,0,00,0.0,0.000,M,0.0,M,,*61 $GPRMC,000000.000,V,5156.856,N,01649.875,E,0.00,0.00,010070,,*1E $GPGGA,000000.000,5156.856,N,01649.875,E,0,00,0.0,0.000,M,0.0,M,,*61 $GPRMC,000000.000,V,5156.880,N,01649.843,E,0.00,0.00,010070,,*10 $GPGGA,000000.000,5156.880,N,01649.843,E,0,00,0.0,0.000,M,0.0,M,,*6F $GPRMC,000000.000,V,5156.899,N,01649.814,E,0.00,0.00,010070,,*1A $GPGGA,000000.000,5156.899,N,01649.814,E,0,00,0.0,0.000,M,0.0,M,,*65 $GPRMC,000000.000,V,5156.928,N,01649.765,E,0.00,0.00,010070,,*18 $GPGGA,000000.000,5156.928,N,01649.765,E,0,00,0.0,0.000,M,0.0,M,,*67 $GPRMC,000000.000,V,5156.949,N,01649.749,E,0.00,0.00,010070,,*11 $GPGGA,000000.000,5156.949,N,01649.749,E,0,00,0.0,0.000,M,0.0,M,,*6E $GPRMC,000000.000,V,5156.976,N,01649.732,E,0.00,0.00,010070,,*11 $GPGGA,000000.000,5156.976,N,01649.732,E,0,00,0.0,0.000,M,0.0,M,,*6E $GPRMC,000000.000,V,5157.011,N,01649.707,E,0.00,0.00,010070,,*1E $GPGGA,000000.000,5157.011,N,01649.707,E,0,00,0.0,0.000,M,0.0,M,,*61 $GPRMC,000000.000,V,5157.040,N,01649.687,E,0.00,0.00,010070,,*13 $GPGGA,000000.000,5157.040,N,01649.687,E,0,00,0.0,0.000,M,0.0,M,,*6C $GPRMC,000000.000,V,5157.072,N,01649.666,E,0.00,0.00,010070,,*1D $GPGGA,000000.000,5157.072,N,01649.666,E,0,00,0.0,0.000,M,0.0,M,,*62 $GPRMC,000000.000,V,5157.119,N,01649.648,E,0.00,0.00,010070,,*1D $GPGGA,000000.000,5157.119,N,01649.648,E,0,00,0.0,0.000,M,0.0,M,,*62 $GPRMC,000000.000,V,5157.155,N,01649.634,E,0.00,0.00,010070,,*1E $GPGGA,000000.000,5157.155,N,01649.634,E,0,00,0.0,0.000,M,0.0,M,,*61 $GPRMC,000000.000,V,5157.191,N,01649.621,E,0.00,0.00,010070,,*12 $GPGGA,000000.000,5157.191,N,01649.621,E,0,00,0.0,0.000,M,0.0,M,,*6D $GPRMC,000000.000,V,5157.228,N,01649.605,E,0.00,0.00,010070,,*15 $GPGGA,000000.000,5157.228,N,01649.605,E,0,00,0.0,0.000,M,0.0,M,,*6A $GPRMC,000000.000,V,5157.269,N,01649.597,E,0.00,0.00,010070,,*18 $GPGGA,000000.000,5157.269,N,01649.597,E,0,00,0.0,0.000,M,0.0,M,,*67 $GPRMC,000000.000,V,5157.457,N,01649.433,E,0.00,0.00,010070,,*1C $GPGGA,000000.000,5157.457,N,01649.433,E,0,00,0.0,0.000,M,0.0,M,,*63 $GPRMC,000000.000,V,5157.528,N,01649.365,E,0.00,0.00,010070,,*11 $GPGGA,000000.000,5157.528,N,01649.365,E,0,00,0.0,0.000,M,0.0,M,,*6E $GPRMC,000000.000,V,5157.614,N,01649.265,E,0.00,0.00,010070,,*1C $GPGGA,000000.000,5157.614,N,01649.265,E,0,00,0.0,0.000,M,0.0,M,,*63 $GPRMC,000000.000,V,5157.701,N,01649.101,E,0.00,0.00,010070,,*18 $GPGGA,000000.000,5157.701,N,01649.101,E,0,00,0.0,0.000,M,0.0,M,,*67 $GPRMC,000000.000,V,5157.735,N,01649.117,E,0.00,0.00,010070,,*18 $GPGGA,000000.000,5157.735,N,01649.117,E,0,00,0.0,0.000,M,0.0,M,,*67 $GPRMC,000000.000,V,5157.752,N,01649.150,E,0.00,0.00,010070,,*1A $GPGGA,000000.000,5157.752,N,01649.150,E,0,00,0.0,0.000,M,0.0,M,,*65 $GPRMC,000000.000,V,5157.773,N,01649.183,E,0.00,0.00,010070,,*17 $GPGGA,000000.000,5157.773,N,01649.183,E,0,00,0.0,0.000,M,0.0,M,,*68 $GPRMC,000000.000,V,5157.787,N,01649.200,E,0.00,0.00,010070,,*14 $GPGGA,000000.000,5157.787,N,01649.200,E,0,00,0.0,0.000,M,0.0,M,,*6B $GPRMC,000000.000,V,5157.837,N,01649.196,E,0.00,0.00,010070,,*1C $GPGGA,000000.000,5157.837,N,01649.196,E,0,00,0.0,0.000,M,0.0,M,,*63 $GPRMC,000000.000,V,5157.868,N,01649.207,E,0.00,0.00,010070,,*1D $GPGGA,000000.000,5157.868,N,01649.207,E,0,00,0.0,0.000,M,0.0,M,,*62 $GPRMC,000000.000,V,5157.922,N,01649.232,E,0.00,0.00,010070,,*14 $GPGGA,000000.000,5157.922,N,01649.232,E,0,00,0.0,0.000,M,0.0,M,,*6B $GPRMC,000000.000,V,5157.954,N,01649.254,E,0.00,0.00,010070,,*15 $GPGGA,000000.000,5157.954,N,01649.254,E,0,00,0.0,0.000,M,0.0,M,,*6A $GPRMC,000000.000,V,5158.063,N,01649.339,E,0.00,0.00,010070,,*1D $GPGGA,000000.000,5158.063,N,01649.339,E,0,00,0.0,0.000,M,0.0,M,,*62 $GPRMC,000000.000,V,5158.185,N,01649.435,E,0.00,0.00,010070,,*1F $GPGGA,000000.000,5158.185,N,01649.435,E,0,00,0.0,0.000,M,0.0,M,,*60 $GPRMC,000000.000,V,5158.201,N,01649.397,E,0.00,0.00,010070,,*1F $GPGGA,000000.000,5158.201,N,01649.397,E,0,00,0.0,0.000,M,0.0,M,,*60 $GPRMC,000000.000,V,5158.222,N,01649.391,E,0.00,0.00,010070,,*18 $GPGGA,000000.000,5158.222,N,01649.391,E,0,00,0.0,0.000,M,0.0,M,,*67 $GPRMC,000000.000,V,5158.255,N,01649.382,E,0.00,0.00,010070,,*1A $GPGGA,000000.000,5158.255,N,01649.382,E,0,00,0.0,0.000,M,0.0,M,,*65 $GPRMC,000000.000,V,5158.293,N,01649.373,E,0.00,0.00,010070,,*1E $GPGGA,000000.000,5158.293,N,01649.373,E,0,00,0.0,0.000,M,0.0,M,,*61 $GPRMC,000000.000,V,5158.333,N,01649.365,E,0.00,0.00,010070,,*12 $GPGGA,000000.000,5158.333,N,01649.365,E,0,00,0.0,0.000,M,0.0,M,,*6D $GPRMC,000000.000,V,5158.399,N,01649.379,E,0.00,0.00,010070,,*1F $GPGGA,000000.000,5158.399,N,01649.379,E,0,00,0.0,0.000,M,0.0,M,,*60 $GPRMC,000000.000,V,5158.531,N,01649.405,E,0.00,0.00,010070,,*17 $GPGGA,000000.000,5158.531,N,01649.405,E,0,00,0.0,0.000,M,0.0,M,,*68 $GPRMC,000000.000,V,5158.632,N,01649.418,E,0.00,0.00,010070,,*1B $GPGGA,000000.000,5158.632,N,01649.418,E,0,00,0.0,0.000,M,0.0,M,,*64 $GPRMC,000000.000,V,5158.712,N,01649.431,E,0.00,0.00,010070,,*13 $GPGGA,000000.000,5158.712,N,01649.431,E,0,00,0.0,0.000,M,0.0,M,,*6C $GPRMC,000000.000,V,5158.768,N,01649.445,E,0.00,0.00,010070,,*1D $GPGGA,000000.000,5158.768,N,01649.445,E,0,00,0.0,0.000,M,0.0,M,,*62 $GPRMC,000000.000,V,5158.794,N,01649.458,E,0.00,0.00,010070,,*12 $GPGGA,000000.000,5158.794,N,01649.458,E,0,00,0.0,0.000,M,0.0,M,,*6D $GPRMC,000000.000,V,5158.821,N,01649.483,E,0.00,0.00,010070,,*15 $GPGGA,000000.000,5158.821,N,01649.483,E,0,00,0.0,0.000,M,0.0,M,,*6A $GPRMC,000000.000,V,5158.844,N,01649.499,E,0.00,0.00,010070,,*1D $GPGGA,000000.000,5158.844,N,01649.499,E,0,00,0.0,0.000,M,0.0,M,,*62 $GPRMC,000000.000,V,5158.867,N,01649.503,E,0.00,0.00,010070,,*1E $GPGGA,000000.000,5158.867,N,01649.503,E,0,00,0.0,0.000,M,0.0,M,,*61 $GPRMC,000000.000,V,5158.884,N,01649.502,E,0.00,0.00,010070,,*12 $GPGGA,000000.000,5158.884,N,01649.502,E,0,00,0.0,0.000,M,0.0,M,,*6D $GPRMC,000000.000,V,5158.897,N,01649.495,E,0.00,0.00,010070,,*1F $GPGGA,000000.000,5158.897,N,01649.495,E,0,00,0.0,0.000,M,0.0,M,,*60 $GPRMC,000000.000,V,5158.914,N,01649.478,E,0.00,0.00,010070,,*16 $GPGGA,000000.000,5158.914,N,01649.478,E,0,00,0.0,0.000,M,0.0,M,,*69 $GPRMC,000000.000,V,5158.930,N,01649.477,E,0.00,0.00,010070,,*1F $GPGGA,000000.000,5158.930,N,01649.477,E,0,00,0.0,0.000,M,0.0,M,,*60 $GPRMC,000000.000,V,5158.956,N,01649.471,E,0.00,0.00,010070,,*19 $GPGGA,000000.000,5158.956,N,01649.471,E,0,00,0.0,0.000,M,0.0,M,,*66 $GPRMC,000000.000,V,5158.983,N,01649.471,E,0.00,0.00,010070,,*11 $GPGGA,000000.000,5158.983,N,01649.471,E,0,00,0.0,0.000,M,0.0,M,,*6E $GPRMC,000000.000,V,5159.029,N,01649.476,E,0.00,0.00,010070,,*1E $GPGGA,000000.000,5159.029,N,01649.476,E,0,00,0.0,0.000,M,0.0,M,,*61 $GPRMC,000000.000,V,5159.124,N,01649.483,E,0.00,0.00,010070,,*18 $GPGGA,000000.000,5159.124,N,01649.483,E,0,00,0.0,0.000,M,0.0,M,,*67 $GPRMC,000000.000,V,5159.225,N,01649.498,E,0.00,0.00,010070,,*10 $GPGGA,000000.000,5159.225,N,01649.498,E,0,00,0.0,0.000,M,0.0,M,,*6F $GPRMC,000000.000,V,5159.441,N,01649.522,E,0.00,0.00,010070,,*14 $GPGGA,000000.000,5159.441,N,01649.522,E,0,00,0.0,0.000,M,0.0,M,,*6B $GPRMC,000000.000,V,5159.585,N,01649.534,E,0.00,0.00,010070,,*1A $GPGGA,000000.000,5159.585,N,01649.534,E,0,00,0.0,0.000,M,0.0,M,,*65 $GPRMC,000000.000,V,5159.841,N,01649.531,E,0.00,0.00,010070,,*1A $GPGGA,000000.000,5159.841,N,01649.531,E,0,00,0.0,0.000,M,0.0,M,,*65 $GPRMC,000000.000,V,5159.871,N,01649.577,E,0.00,0.00,010070,,*1B $GPGGA,000000.000,5159.871,N,01649.577,E,0,00,0.0,0.000,M,0.0,M,,*64 $GPRMC,000000.000,V,5159.895,N,01649.612,E,0.00,0.00,010070,,*11 $GPGGA,000000.000,5159.895,N,01649.612,E,0,00,0.0,0.000,M,0.0,M,,*6E $GPRMC,000000.000,V,5159.906,N,01649.624,E,0.00,0.00,010070,,*1F $GPGGA,000000.000,5159.906,N,01649.624,E,0,00,0.0,0.000,M,0.0,M,,*60 $GPRMC,000000.000,V,5159.954,N,01649.635,E,0.00,0.00,010070,,*18 $GPGGA,000000.000,5159.954,N,01649.635,E,0,00,0.0,0.000,M,0.0,M,,*67 $GPRMC,000000.000,V,5159.993,N,01649.646,E,0.00,0.00,010070,,*17 $GPGGA,000000.000,5159.993,N,01649.646,E,0,00,0.0,0.000,M,0.0,M,,*68 $GPRMC,000000.000,V,5200.033,N,01649.647,E,0.00,0.00,010070,,*1A $GPGGA,000000.000,5200.033,N,01649.647,E,0,00,0.0,0.000,M,0.0,M,,*65 $GPRMC,000000.000,V,5200.067,N,01649.639,E,0.00,0.00,010070,,*12 $GPGGA,000000.000,5200.067,N,01649.639,E,0,00,0.0,0.000,M,0.0,M,,*6D $GPRMC,000000.000,V,5200.139,N,01649.626,E,0.00,0.00,010070,,*16 $GPGGA,000000.000,5200.139,N,01649.626,E,0,00,0.0,0.000,M,0.0,M,,*69 $GPRMC,000000.000,V,5200.404,N,01649.584,E,0.00,0.00,010070,,*16 $GPGGA,000000.000,5200.404,N,01649.584,E,0,00,0.0,0.000,M,0.0,M,,*69 $GPRMC,000000.000,V,5200.425,N,01649.574,E,0.00,0.00,010070,,*1A $GPGGA,000000.000,5200.425,N,01649.574,E,0,00,0.0,0.000,M,0.0,M,,*65 $GPRMC,000000.000,V,5200.541,N,01649.556,E,0.00,0.00,010070,,*19 $GPGGA,000000.000,5200.541,N,01649.556,E,0,00,0.0,0.000,M,0.0,M,,*66 $GPRMC,000000.000,V,5200.621,N,01649.541,E,0.00,0.00,010070,,*1A $GPGGA,000000.000,5200.621,N,01649.541,E,0,00,0.0,0.000,M,0.0,M,,*65 $GPRMC,000000.000,V,5200.674,N,01649.531,E,0.00,0.00,010070,,*1D $GPGGA,000000.000,5200.674,N,01649.531,E,0,00,0.0,0.000,M,0.0,M,,*62 $GPRMC,000000.000,V,5200.558,N,01649.132,E,0.00,0.00,010070,,*17 $GPGGA,000000.000,5200.558,N,01649.132,E,0,00,0.0,0.000,M,0.0,M,,*68 $GPRMC,000000.000,V,5200.551,N,01649.038,E,0.00,0.00,010070,,*15 $GPGGA,000000.000,5200.551,N,01649.038,E,0,00,0.0,0.000,M,0.0,M,,*6A $GPRMC,000000.000,V,5200.541,N,01648.840,E,0.00,0.00,010070,,*12 $GPGGA,000000.000,5200.541,N,01648.840,E,0,00,0.0,0.000,M,0.0,M,,*6D $GPRMC,000000.000,V,5200.517,N,01648.723,E,0.00,0.00,010070,,*1B $GPGGA,000000.000,5200.517,N,01648.723,E,0,00,0.0,0.000,M,0.0,M,,*64 $GPRMC,000000.000,V,5200.490,N,01648.613,E,0.00,0.00,010070,,*17 $GPGGA,000000.000,5200.490,N,01648.613,E,0,00,0.0,0.000,M,0.0,M,,*68 $GPRMC,000000.000,V,5200.472,N,01648.580,E,0.00,0.00,010070,,*12 $GPGGA,000000.000,5200.472,N,01648.580,E,0,00,0.0,0.000,M,0.0,M,,*6D $GPRMC,000000.000,V,5200.487,N,01648.506,E,0.00,0.00,010070,,*16 $GPGGA,000000.000,5200.487,N,01648.506,E,0,00,0.0,0.000,M,0.0,M,,*69 $GPRMC,000000.000,V,5200.508,N,01648.484,E,0.00,0.00,010070,,*1B $GPGGA,000000.000,5200.508,N,01648.484,E,0,00,0.0,0.000,M,0.0,M,,*64 $GPRMC,000000.000,V,5200.552,N,01648.448,E,0.00,0.00,010070,,*14 $GPGGA,000000.000,5200.552,N,01648.448,E,0,00,0.0,0.000,M,0.0,M,,*6B $GPRMC,000000.000,V,5200.611,N,01648.415,E,0.00,0.00,010070,,*18 $GPGGA,000000.000,5200.611,N,01648.415,E,0,00,0.0,0.000,M,0.0,M,,*67 $GPRMC,000000.000,V,5200.635,N,01648.393,E,0.00,0.00,010070,,*17 $GPGGA,000000.000,5200.635,N,01648.393,E,0,00,0.0,0.000,M,0.0,M,,*68 $GPRMC,000000.000,V,5200.723,N,01648.138,E,0.00,0.00,010070,,*12 $GPGGA,000000.000,5200.723,N,01648.138,E,0,00,0.0,0.000,M,0.0,M,,*6D $GPRMC,000000.000,V,5200.906,N,01647.593,E,0.00,0.00,010070,,*11 $GPGGA,000000.000,5200.906,N,01647.593,E,0,00,0.0,0.000,M,0.0,M,,*6E $GPRMC,000000.000,V,5200.976,N,01647.376,E,0.00,0.00,010070,,*1B $GPGGA,000000.000,5200.976,N,01647.376,E,0,00,0.0,0.000,M,0.0,M,,*64 $GPRMC,000000.000,V,5201.191,N,01647.153,E,0.00,0.00,010070,,*1E $GPGGA,000000.000,5201.191,N,01647.153,E,0,00,0.0,0.000,M,0.0,M,,*61 $GPRMC,000000.000,V,5201.600,N,01646.795,E,0.00,0.00,010070,,*1C $GPGGA,000000.000,5201.600,N,01646.795,E,0,00,0.0,0.000,M,0.0,M,,*63 $GPRMC,000000.000,V,5202.113,N,01646.345,E,0.00,0.00,010070,,*13 $GPGGA,000000.000,5202.113,N,01646.345,E,0,00,0.0,0.000,M,0.0,M,,*6C $GPRMC,000000.000,V,5202.217,N,01646.390,E,0.00,0.00,010070,,*1C $GPGGA,000000.000,5202.217,N,01646.390,E,0,00,0.0,0.000,M,0.0,M,,*63 $GPRMC,000000.000,V,5202.271,N,01646.419,E,0.00,0.00,010070,,*1A $GPGGA,000000.000,5202.271,N,01646.419,E,0,00,0.0,0.000,M,0.0,M,,*65 $GPRMC,000000.000,V,5202.309,N,01646.432,E,0.00,0.00,010070,,*1D $GPGGA,000000.000,5202.309,N,01646.432,E,0,00,0.0,0.000,M,0.0,M,,*62 $GPRMC,000000.000,V,5202.335,N,01646.444,E,0.00,0.00,010070,,*13 $GPGGA,000000.000,5202.335,N,01646.444,E,0,00,0.0,0.000,M,0.0,M,,*6C $GPRMC,000000.000,V,5202.367,N,01646.441,E,0.00,0.00,010070,,*11 $GPGGA,000000.000,5202.367,N,01646.441,E,0,00,0.0,0.000,M,0.0,M,,*6E $GPRMC,000000.000,V,5202.377,N,01646.422,E,0.00,0.00,010070,,*15 $GPGGA,000000.000,5202.377,N,01646.422,E,0,00,0.0,0.000,M,0.0,M,,*6A $GPRMC,000000.000,V,5202.373,N,01646.390,E,0.00,0.00,010070,,*1F $GPGGA,000000.000,5202.373,N,01646.390,E,0,00,0.0,0.000,M,0.0,M,,*60 $GPRMC,000000.000,V,5202.360,N,01646.369,E,0.00,0.00,010070,,*1B $GPGGA,000000.000,5202.360,N,01646.369,E,0,00,0.0,0.000,M,0.0,M,,*64 $GPRMC,000000.000,V,5202.349,N,01646.350,E,0.00,0.00,010070,,*1A $GPGGA,000000.000,5202.349,N,01646.350,E,0,00,0.0,0.000,M,0.0,M,,*65 $GPRMC,000000.000,V,5202.331,N,01646.315,E,0.00,0.00,010070,,*14 $GPGGA,000000.000,5202.331,N,01646.315,E,0,00,0.0,0.000,M,0.0,M,,*6B $GPRMC,000000.000,V,5202.334,N,01646.288,E,0.00,0.00,010070,,*14 $GPGGA,000000.000,5202.334,N,01646.288,E,0,00,0.0,0.000,M,0.0,M,,*6B $GPRMC,000000.000,V,5202.338,N,01646.257,E,0.00,0.00,010070,,*1A $GPGGA,000000.000,5202.338,N,01646.257,E,0,00,0.0,0.000,M,0.0,M,,*65 $GPRMC,000000.000,V,5202.331,N,01646.239,E,0.00,0.00,010070,,*1B $GPGGA,000000.000,5202.331,N,01646.239,E,0,00,0.0,0.000,M,0.0,M,,*64 $GPRMC,000000.000,V,5202.316,N,01646.227,E,0.00,0.00,010070,,*11 $GPGGA,000000.000,5202.316,N,01646.227,E,0,00,0.0,0.000,M,0.0,M,,*6E $GPRMC,000000.000,V,5202.301,N,01646.224,E,0.00,0.00,010070,,*14 $GPGGA,000000.000,5202.301,N,01646.224,E,0,00,0.0,0.000,M,0.0,M,,*6B $GPRMC,000000.000,V,5202.292,N,01646.200,E,0.00,0.00,010070,,*19 $GPGGA,000000.000,5202.292,N,01646.200,E,0,00,0.0,0.000,M,0.0,M,,*66 $GPRMC,000000.000,V,5202.288,N,01646.176,E,0.00,0.00,010070,,*10 $GPGGA,000000.000,5202.288,N,01646.176,E,0,00,0.0,0.000,M,0.0,M,,*6F $GPRMC,000000.000,V,5202.278,N,01646.168,E,0.00,0.00,010070,,*10 $GPGGA,000000.000,5202.278,N,01646.168,E,0,00,0.0,0.000,M,0.0,M,,*6F $GPRMC,000000.000,V,5202.256,N,01646.153,E,0.00,0.00,010070,,*14 $GPGGA,000000.000,5202.256,N,01646.153,E,0,00,0.0,0.000,M,0.0,M,,*6B $GPRMC,000000.000,V,5202.199,N,01646.126,E,0.00,0.00,010070,,*16 $GPGGA,000000.000,5202.199,N,01646.126,E,0,00,0.0,0.000,M,0.0,M,,*69 $GPRMC,000000.000,V,5201.707,N,01645.880,E,0.00,0.00,010070,,*12 $GPGGA,000000.000,5201.707,N,01645.880,E,0,00,0.0,0.000,M,0.0,M,,*6D $GPRMC,000000.000,V,5201.581,N,01645.812,E,0.00,0.00,010070,,*15 $GPGGA,000000.000,5201.581,N,01645.812,E,0,00,0.0,0.000,M,0.0,M,,*6A $GPRMC,000000.000,V,5201.553,N,01645.817,E,0.00,0.00,010070,,*1F $GPGGA,000000.000,5201.553,N,01645.817,E,0,00,0.0,0.000,M,0.0,M,,*60 $GPRMC,000000.000,V,5201.515,N,01645.836,E,0.00,0.00,010070,,*1E $GPGGA,000000.000,5201.515,N,01645.836,E,0,00,0.0,0.000,M,0.0,M,,*61 $GPRMC,000000.000,V,5201.481,N,01645.845,E,0.00,0.00,010070,,*16 $GPGGA,000000.000,5201.481,N,01645.845,E,0,00,0.0,0.000,M,0.0,M,,*69 $GPRMC,000000.000,V,5201.462,N,01645.840,E,0.00,0.00,010070,,*1E $GPGGA,000000.000,5201.462,N,01645.840,E,0,00,0.0,0.000,M,0.0,M,,*61 $GPRMC,000000.000,V,5201.428,N,01645.830,E,0.00,0.00,010070,,*17 $GPGGA,000000.000,5201.428,N,01645.830,E,0,00,0.0,0.000,M,0.0,M,,*68 $GPRMC,000000.000,V,5201.392,N,01645.826,E,0.00,0.00,010070,,*16 $GPGGA,000000.000,5201.392,N,01645.826,E,0,00,0.0,0.000,M,0.0,M,,*69 $GPRMC,000000.000,V,5201.368,N,01645.812,E,0.00,0.00,010070,,*14 $GPGGA,000000.000,5201.368,N,01645.812,E,0,00,0.0,0.000,M,0.0,M,,*6B $GPRMC,000000.000,V,5201.323,N,01645.792,E,0.00,0.00,010070,,*1C $GPGGA,000000.000,5201.323,N,01645.792,E,0,00,0.0,0.000,M,0.0,M,,*63 $GPRMC,000000.000,V,5201.299,N,01645.776,E,0.00,0.00,010070,,*16 $GPGGA,000000.000,5201.299,N,01645.776,E,0,00,0.0,0.000,M,0.0,M,,*69 $GPRMC,000000.000,V,5200.892,N,01645.262,E,0.00,0.00,010070,,*16 $GPGGA,000000.000,5200.892,N,01645.262,E,0,00,0.0,0.000,M,0.0,M,,*69 $GPRMC,000000.000,V,5200.881,N,01645.257,E,0.00,0.00,010070,,*12 $GPGGA,000000.000,5200.881,N,01645.257,E,0,00,0.0,0.000,M,0.0,M,,*6D $GPRMC,000000.000,V,5200.871,N,01645.281,E,0.00,0.00,010070,,*16 $GPGGA,000000.000,5200.871,N,01645.281,E,0,00,0.0,0.000,M,0.0,M,,*69 $GPRMC,000000.000,V,5200.849,N,01645.321,E,0.00,0.00,010070,,*16 $GPGGA,000000.000,5200.849,N,01645.321,E,0,00,0.0,0.000,M,0.0,M,,*69 $GPRMC,000000.000,V,5200.827,N,01645.343,E,0.00,0.00,010070,,*1A $GPGGA,000000.000,5200.827,N,01645.343,E,0,00,0.0,0.000,M,0.0,M,,*65 $GPRMC,000000.000,V,5200.801,N,01645.370,E,0.00,0.00,010070,,*1E $GPGGA,000000.000,5200.801,N,01645.370,E,0,00,0.0,0.000,M,0.0,M,,*61 $GPRMC,000000.000,V,5200.776,N,01645.389,E,0.00,0.00,010070,,*17 $GPGGA,000000.000,5200.776,N,01645.389,E,0,00,0.0,0.000,M,0.0,M,,*68 $GPRMC,000000.000,V,5200.761,N,01645.405,E,0.00,0.00,010070,,*12 $GPGGA,000000.000,5200.761,N,01645.405,E,0,00,0.0,0.000,M,0.0,M,,*6D $GPRMC,000000.000,V,5200.730,N,01645.429,E,0.00,0.00,010070,,*18 $GPGGA,000000.000,5200.730,N,01645.429,E,0,00,0.0,0.000,M,0.0,M,,*67 $GPRMC,000000.000,V,5200.715,N,01645.455,E,0.00,0.00,010070,,*14 $GPGGA,000000.000,5200.715,N,01645.455,E,0,00,0.0,0.000,M,0.0,M,,*6B $GPRMC,000000.000,V,5200.699,N,01645.492,E,0.00,0.00,010070,,*1A $GPGGA,000000.000,5200.699,N,01645.492,E,0,00,0.0,0.000,M,0.0,M,,*65 $GPRMC,000000.000,V,5200.680,N,01645.553,E,0.00,0.00,010070,,*1E $GPGGA,000000.000,5200.680,N,01645.553,E,0,00,0.0,0.000,M,0.0,M,,*61 $GPRMC,000000.000,V,5200.655,N,01645.598,E,0.00,0.00,010070,,*11 $GPGGA,000000.000,5200.655,N,01645.598,E,0,00,0.0,0.000,M,0.0,M,,*6E $GPRMC,000000.000,V,5200.641,N,01645.626,E,0.00,0.00,010070,,*12 $GPGGA,000000.000,5200.641,N,01645.626,E,0,00,0.0,0.000,M,0.0,M,,*6D $GPRMC,000000.000,V,5200.618,N,01645.673,E,0.00,0.00,010070,,*1E $GPGGA,000000.000,5200.618,N,01645.673,E,0,00,0.0,0.000,M,0.0,M,,*61 $GPRMC,000000.000,V,5200.605,N,01645.700,E,0.00,0.00,010070,,*17 $GPGGA,000000.000,5200.605,N,01645.700,E,0,00,0.0,0.000,M,0.0,M,,*68 $GPRMC,000000.000,V,5200.528,N,01645.872,E,0.00,0.00,010070,,*11 $GPGGA,000000.000,5200.528,N,01645.872,E,0,00,0.0,0.000,M,0.0,M,,*6E $GPRMC,000000.000,V,5200.427,N,01645.729,E,0.00,0.00,010070,,*1E $GPGGA,000000.000,5200.427,N,01645.729,E,0,00,0.0,0.000,M,0.0,M,,*61 $GPRMC,000000.000,V,5200.279,N,01645.980,E,0.00,0.00,010070,,*1E $GPGGA,000000.000,5200.279,N,01645.980,E,0,00,0.0,0.000,M,0.0,M,,*61 $GPRMC,000000.000,V,5200.012,N,01645.679,E,0.00,0.00,010070,,*18 $GPGGA,000000.000,5200.012,N,01645.679,E,0,00,0.0,0.000,M,0.0,M,,*67 $GPRMC,000000.000,V,5200.334,N,01645.182,E,0.00,0.00,010070,,*1C $GPGGA,000000.000,5200.334,N,01645.182,E,0,00,0.0,0.000,M,0.0,M,,*63 $GPRMC,000000.000,V,5200.563,N,01644.747,E,0.00,0.00,010070,,*16 $GPGGA,000000.000,5200.563,N,01644.747,E,0,00,0.0,0.000,M,0.0,M,,*69 $GPRMC,000000.000,V,5200.726,N,01644.442,E,0.00,0.00,010070,,*13 $GPGGA,000000.000,5200.726,N,01644.442,E,0,00,0.0,0.000,M,0.0,M,,*6C $GPRMC,000000.000,V,5200.955,N,01644.007,E,0.00,0.00,010070,,*1C $GPGGA,000000.000,5200.955,N,01644.007,E,0,00,0.0,0.000,M,0.0,M,,*63 $GPRMC,000000.000,V,5201.040,N,01643.856,E,0.00,0.00,010070,,*1B $GPGGA,000000.000,5201.040,N,01643.856,E,0,00,0.0,0.000,M,0.0,M,,*64 $GPRMC,000000.000,V,5201.067,N,01643.829,E,0.00,0.00,010070,,*16 $GPGGA,000000.000,5201.067,N,01643.829,E,0,00,0.0,0.000,M,0.0,M,,*69 $GPRMC,000000.000,V,5201.089,N,01643.808,E,0.00,0.00,010070,,*15 $GPGGA,000000.000,5201.089,N,01643.808,E,0,00,0.0,0.000,M,0.0,M,,*6A $GPRMC,000000.000,V,5201.106,N,01643.784,E,0.00,0.00,010070,,*18 $GPGGA,000000.000,5201.106,N,01643.784,E,0,00,0.0,0.000,M,0.0,M,,*67 $GPRMC,000000.000,V,5201.126,N,01643.759,E,0.00,0.00,010070,,*1A $GPGGA,000000.000,5201.126,N,01643.759,E,0,00,0.0,0.000,M,0.0,M,,*65 $GPRMC,000000.000,V,5201.143,N,01643.722,E,0.00,0.00,010070,,*15 $GPGGA,000000.000,5201.143,N,01643.722,E,0,00,0.0,0.000,M,0.0,M,,*6A $GPRMC,000000.000,V,5201.198,N,01643.614,E,0.00,0.00,010070,,*17 $GPGGA,000000.000,5201.198,N,01643.614,E,0,00,0.0,0.000,M,0.0,M,,*68 $GPRMC,000000.000,V,5201.429,N,01643.157,E,0.00,0.00,010070,,*18 $GPGGA,000000.000,5201.429,N,01643.157,E,0,00,0.0,0.000,M,0.0,M,,*67 $GPRMC,000000.000,V,5201.546,N,01642.915,E,0.00,0.00,010070,,*1F $GPGGA,000000.000,5201.546,N,01642.915,E,0,00,0.0,0.000,M,0.0,M,,*60 $GPRMC,000000.000,V,5201.594,N,01642.829,E,0.00,0.00,010070,,*1E $GPGGA,000000.000,5201.594,N,01642.829,E,0,00,0.0,0.000,M,0.0,M,,*61 $GPRMC,000000.000,V,5201.705,N,01642.646,E,0.00,0.00,010070,,*13 $GPGGA,000000.000,5201.705,N,01642.646,E,0,00,0.0,0.000,M,0.0,M,,*6C $GPRMC,000000.000,V,5201.824,N,01642.610,E,0.00,0.00,010070,,*1C $GPGGA,000000.000,5201.824,N,01642.610,E,0,00,0.0,0.000,M,0.0,M,,*63 $GPRMC,000000.000,V,5201.840,N,01642.598,E,0.00,0.00,010070,,*1D $GPGGA,000000.000,5201.840,N,01642.598,E,0,00,0.0,0.000,M,0.0,M,,*62 $GPRMC,000000.000,V,5201.855,N,01642.569,E,0.00,0.00,010070,,*17 $GPGGA,000000.000,5201.855,N,01642.569,E,0,00,0.0,0.000,M,0.0,M,,*68 $GPRMC,000000.000,V,5201.867,N,01642.539,E,0.00,0.00,010070,,*13 $GPGGA,000000.000,5201.867,N,01642.539,E,0,00,0.0,0.000,M,0.0,M,,*6C $GPRMC,000000.000,V,5201.880,N,01642.527,E,0.00,0.00,010070,,*15 $GPGGA,000000.000,5201.880,N,01642.527,E,0,00,0.0,0.000,M,0.0,M,,*6A $GPRMC,000000.000,V,5201.927,N,01642.556,E,0.00,0.00,010070,,*1F $GPGGA,000000.000,5201.927,N,01642.556,E,0,00,0.0,0.000,M,0.0,M,,*60 $GPRMC,000000.000,V,5201.966,N,01642.592,E,0.00,0.00,010070,,*12 $GPGGA,000000.000,5201.966,N,01642.592,E,0,00,0.0,0.000,M,0.0,M,,*6D $GPRMC,000000.000,V,5202.015,N,01642.648,E,0.00,0.00,010070,,*18 $GPGGA,000000.000,5202.015,N,01642.648,E,0,00,0.0,0.000,M,0.0,M,,*67 $GPRMC,000000.000,V,5202.058,N,01642.702,E,0.00,0.00,010070,,*1E $GPGGA,000000.000,5202.058,N,01642.702,E,0,00,0.0,0.000,M,0.0,M,,*61 $GPRMC,000000.000,V,5202.093,N,01642.763,E,0.00,0.00,010070,,*1E $GPGGA,000000.000,5202.093,N,01642.763,E,0,00,0.0,0.000,M,0.0,M,,*61 $GPRMC,000000.000,V,5202.132,N,01642.830,E,0.00,0.00,010070,,*1D $GPGGA,000000.000,5202.132,N,01642.830,E,0,00,0.0,0.000,M,0.0,M,,*62 $GPRMC,000000.000,V,5202.157,N,01642.875,E,0.00,0.00,010070,,*1F $GPGGA,000000.000,5202.157,N,01642.875,E,0,00,0.0,0.000,M,0.0,M,,*60 $GPRMC,000000.000,V,5202.169,N,01642.883,E,0.00,0.00,010070,,*1B $GPGGA,000000.000,5202.169,N,01642.883,E,0,00,0.0,0.000,M,0.0,M,,*64 $GPRMC,000000.000,V,5202.195,N,01642.866,E,0.00,0.00,010070,,*13 $GPGGA,000000.000,5202.195,N,01642.866,E,0,00,0.0,0.000,M,0.0,M,,*6C $GPRMC,000000.000,V,5202.362,N,01642.722,E,0.00,0.00,010070,,*16 $GPGGA,000000.000,5202.362,N,01642.722,E,0,00,0.0,0.000,M,0.0,M,,*69 $GPRMC,000000.000,V,5202.533,N,01642.575,E,0.00,0.00,010070,,*14 $GPGGA,000000.000,5202.533,N,01642.575,E,0,00,0.0,0.000,M,0.0,M,,*6B $GPRMC,000000.000,V,5202.654,N,01642.484,E,0.00,0.00,010070,,*19 $GPGGA,000000.000,5202.654,N,01642.484,E,0,00,0.0,0.000,M,0.0,M,,*66 $GPRMC,000000.000,V,5202.689,N,01642.480,E,0.00,0.00,010070,,*1D $GPGGA,000000.000,5202.689,N,01642.480,E,0,00,0.0,0.000,M,0.0,M,,*62 $GPRMC,000000.000,V,5202.720,N,01642.486,E,0.00,0.00,010070,,*19 $GPGGA,000000.000,5202.720,N,01642.486,E,0,00,0.0,0.000,M,0.0,M,,*66 $GPRMC,000000.000,V,5202.770,N,01642.494,E,0.00,0.00,010070,,*1F $GPGGA,000000.000,5202.770,N,01642.494,E,0,00,0.0,0.000,M,0.0,M,,*60 $GPRMC,000000.000,V,5202.863,N,01642.527,E,0.00,0.00,010070,,*1B $GPGGA,000000.000,5202.863,N,01642.527,E,0,00,0.0,0.000,M,0.0,M,,*64 $GPRMC,000000.000,V,5202.890,N,01642.532,E,0.00,0.00,010070,,*13 $GPGGA,000000.000,5202.890,N,01642.532,E,0,00,0.0,0.000,M,0.0,M,,*6C $GPRMC,000000.000,V,5203.377,N,01642.499,E,0.00,0.00,010070,,*10 $GPGGA,000000.000,5203.377,N,01642.499,E,0,00,0.0,0.000,M,0.0,M,,*6F $GPRMC,000000.000,V,5203.436,N,01642.517,E,0.00,0.00,010070,,*15 $GPGGA,000000.000,5203.436,N,01642.517,E,0,00,0.0,0.000,M,0.0,M,,*6A $GPRMC,000000.000,V,5203.488,N,01642.324,E,0.00,0.00,010070,,*16 $GPGGA,000000.000,5203.488,N,01642.324,E,0,00,0.0,0.000,M,0.0,M,,*69 $GPRMC,000000.000,V,5203.535,N,01642.196,E,0.00,0.00,010070,,*1A $GPGGA,000000.000,5203.535,N,01642.196,E,0,00,0.0,0.000,M,0.0,M,,*65 $GPRMC,000000.000,V,5203.609,N,01642.021,E,0.00,0.00,010070,,*1B $GPGGA,000000.000,5203.609,N,01642.021,E,0,00,0.0,0.000,M,0.0,M,,*64 $GPRMC,000000.000,V,5203.718,N,01641.774,E,0.00,0.00,010070,,*1E $GPGGA,000000.000,5203.718,N,01641.774,E,0,00,0.0,0.000,M,0.0,M,,*61 $GPRMC,000000.000,V,5203.806,N,01641.566,E,0.00,0.00,010070,,*1F $GPGGA,000000.000,5203.806,N,01641.566,E,0,00,0.0,0.000,M,0.0,M,,*60 $GPRMC,000000.000,V,5203.844,N,01641.481,E,0.00,0.00,010070,,*11 $GPGGA,000000.000,5203.844,N,01641.481,E,0,00,0.0,0.000,M,0.0,M,,*6E $GPRMC,000000.000,V,5203.751,N,01641.201,E,0.00,0.00,010070,,*14 $GPGGA,000000.000,5203.751,N,01641.201,E,0,00,0.0,0.000,M,0.0,M,,*6B $GPRMC,000000.000,V,5203.735,N,01641.052,E,0.00,0.00,010070,,*12 $GPGGA,000000.000,5203.735,N,01641.052,E,0,00,0.0,0.000,M,0.0,M,,*6D $GPRMC,000000.000,V,5203.654,N,01640.653,E,0.00,0.00,010070,,*12 $GPGGA,000000.000,5203.654,N,01640.653,E,0,00,0.0,0.000,M,0.0,M,,*6D $GPRMC,000000.000,V,5203.624,N,01640.498,E,0.00,0.00,010070,,*10 $GPGGA,000000.000,5203.624,N,01640.498,E,0,00,0.0,0.000,M,0.0,M,,*6F $GPRMC,000000.000,V,5203.749,N,01640.467,E,0.00,0.00,010070,,*1A $GPGGA,000000.000,5203.749,N,01640.467,E,0,00,0.0,0.000,M,0.0,M,,*65 $GPRMC,000000.000,V,5203.843,N,01640.465,E,0.00,0.00,010070,,*1D $GPGGA,000000.000,5203.843,N,01640.465,E,0,00,0.0,0.000,M,0.0,M,,*62 $GPRMC,000000.000,V,5203.924,N,01640.434,E,0.00,0.00,010070,,*19 $GPGGA,000000.000,5203.924,N,01640.434,E,0,00,0.0,0.000,M,0.0,M,,*66 $GPRMC,000000.000,V,5204.026,N,01640.375,E,0.00,0.00,010070,,*17 $GPGGA,000000.000,5204.026,N,01640.375,E,0,00,0.0,0.000,M,0.0,M,,*68 $GPRMC,000000.000,V,5204.068,N,01640.346,E,0.00,0.00,010070,,*1D $GPGGA,000000.000,5204.068,N,01640.346,E,0,00,0.0,0.000,M,0.0,M,,*62 $GPRMC,000000.000,V,5204.152,N,01640.285,E,0.00,0.00,010070,,*1B $GPGGA,000000.000,5204.152,N,01640.285,E,0,00,0.0,0.000,M,0.0,M,,*64 $GPRMC,000000.000,V,5204.218,N,01640.215,E,0.00,0.00,010070,,*1F $GPGGA,000000.000,5204.218,N,01640.215,E,0,00,0.0,0.000,M,0.0,M,,*60 $GPRMC,000000.000,V,5204.283,N,01640.146,E,0.00,0.00,010070,,*18 $GPGGA,000000.000,5204.283,N,01640.146,E,0,00,0.0,0.000,M,0.0,M,,*67 $GPRMC,000000.000,V,5204.186,N,01639.847,E,0.00,0.00,010070,,*18 $GPGGA,000000.000,5204.186,N,01639.847,E,0,00,0.0,0.000,M,0.0,M,,*67 $GPRMC,000000.000,V,5204.359,N,01639.795,E,0.00,0.00,010070,,*18 $GPGGA,000000.000,5204.359,N,01639.795,E,0,00,0.0,0.000,M,0.0,M,,*67 $GPRMC,000000.000,V,5204.470,N,01639.770,E,0.00,0.00,010070,,*1F $GPGGA,000000.000,5204.470,N,01639.770,E,0,00,0.0,0.000,M,0.0,M,,*60 $GPRMC,000000.000,V,5204.592,N,01639.752,E,0.00,0.00,010070,,*12 $GPGGA,000000.000,5204.592,N,01639.752,E,0,00,0.0,0.000,M,0.0,M,,*6D $GPRMC,000000.000,V,5204.650,N,01639.736,E,0.00,0.00,010070,,*1D $GPGGA,000000.000,5204.650,N,01639.736,E,0,00,0.0,0.000,M,0.0,M,,*62 $GPRMC,000000.000,V,5204.738,N,01639.678,E,0.00,0.00,010070,,*19 $GPGGA,000000.000,5204.738,N,01639.678,E,0,00,0.0,0.000,M,0.0,M,,*66 $GPRMC,000000.000,V,5204.882,N,01639.596,E,0.00,0.00,010070,,*14 $GPGGA,000000.000,5204.882,N,01639.596,E,0,00,0.0,0.000,M,0.0,M,,*6B $GPRMC,000000.000,V,5204.861,N,01639.529,E,0.00,0.00,010070,,*1D $GPGGA,000000.000,5204.861,N,01639.529,E,0,00,0.0,0.000,M,0.0,M,,*62 $GPRMC,000000.000,V,5204.855,N,01639.498,E,0.00,0.00,010070,,*11 $GPGGA,000000.000,5204.855,N,01639.498,E,0,00,0.0,0.000,M,0.0,M,,*6E $GPRMC,000000.000,V,5204.858,N,01639.473,E,0.00,0.00,010070,,*19 $GPGGA,000000.000,5204.858,N,01639.473,E,0,00,0.0,0.000,M,0.0,M,,*66 $GPRMC,000000.000,V,5204.907,N,01639.383,E,0.00,0.00,010070,,*1A $GPGGA,000000.000,5204.907,N,01639.383,E,0,00,0.0,0.000,M,0.0,M,,*65 $GPRMC,000000.000,V,5204.920,N,01639.359,E,0.00,0.00,010070,,*18 $GPGGA,000000.000,5204.920,N,01639.359,E,0,00,0.0,0.000,M,0.0,M,,*67